<?xml version="1.0" encoding="UTF-8" standalone="no" ?>
<gpx xmlns="http://www.topografix.com/GPX/1/1" xmlns:xsi="http://www.w3.org/2001/XMLSchema-instance" xsi:schemaLocation="http://www.topografix.com/GPX/1/1 http://www.topografix.com/GPX/1/1/gpx.xsd" version="1.1" creator="VisuGPX - https://www.visugpx.com">
  <metadata>
    <name>TREIGNAT Les Maitres Sonneurs 23-08-18</name>
    <desc><![CDATA[Vérification nouveau circuit Maitre Sonneurs]]></desc>
  </metadata>
  <trk>
    <name><![CDATA[20180829171803-AclAi]]></name>
    <trkseg>
      <trkpt lat="46.37071" lon="2.40581">
        <ele>378</ele>
        <time>2018-08-23T08:15:44Z</time>
      </trkpt>
      <trkpt lat="46.3707" lon="2.40581">
        <ele>378</ele>
        <time>2018-08-23T08:15:45Z</time>
      </trkpt>
      <trkpt lat="46.37061" lon="2.40586">
        <ele>376</ele>
        <time>2018-08-23T08:16:20Z</time>
      </trkpt>
      <trkpt lat="46.37053" lon="2.40595">
        <ele>375</ele>
        <time>2018-08-23T08:16:35Z</time>
      </trkpt>
      <trkpt lat="46.37046" lon="2.40603">
        <ele>375</ele>
        <time>2018-08-23T08:16:46Z</time>
      </trkpt>
      <trkpt lat="46.37038" lon="2.4061">
        <ele>374</ele>
        <time>2018-08-23T08:16:55Z</time>
      </trkpt>
      <trkpt lat="46.37029" lon="2.40616">
        <ele>374</ele>
        <time>2018-08-23T08:17:05Z</time>
      </trkpt>
      <trkpt lat="46.37021" lon="2.40623">
        <ele>374</ele>
        <time>2018-08-23T08:17:12Z</time>
      </trkpt>
      <trkpt lat="46.37013" lon="2.40629">
        <ele>373</ele>
        <time>2018-08-23T08:17:21Z</time>
      </trkpt>
      <trkpt lat="46.37004" lon="2.40636">
        <ele>373</ele>
        <time>2018-08-23T08:17:27Z</time>
      </trkpt>
      <trkpt lat="46.36998" lon="2.40647">
        <ele>369</ele>
        <time>2018-08-23T08:17:41Z</time>
      </trkpt>
      <trkpt lat="46.36989" lon="2.40652">
        <ele>369</ele>
        <time>2018-08-23T08:17:45Z</time>
      </trkpt>
      <trkpt lat="46.36981" lon="2.40658">
        <ele>368</ele>
        <time>2018-08-23T08:17:53Z</time>
      </trkpt>
      <trkpt lat="46.36971" lon="2.40663">
        <ele>368</ele>
        <time>2018-08-23T08:18:04Z</time>
      </trkpt>
      <trkpt lat="46.36962" lon="2.40666">
        <ele>368</ele>
        <time>2018-08-23T08:18:11Z</time>
      </trkpt>
      <trkpt lat="46.36952" lon="2.40669">
        <ele>367</ele>
        <time>2018-08-23T08:18:21Z</time>
      </trkpt>
      <trkpt lat="46.36944" lon="2.40675">
        <ele>366</ele>
        <time>2018-08-23T08:18:30Z</time>
      </trkpt>
      <trkpt lat="46.36935" lon="2.40675">
        <ele>366</ele>
        <time>2018-08-23T08:18:37Z</time>
      </trkpt>
      <trkpt lat="46.36925" lon="2.40674">
        <ele>365</ele>
        <time>2018-08-23T08:18:47Z</time>
      </trkpt>
      <trkpt lat="46.36916" lon="2.40671">
        <ele>364</ele>
        <time>2018-08-23T08:18:56Z</time>
      </trkpt>
      <trkpt lat="46.3691" lon="2.40661">
        <ele>364</ele>
        <time>2018-08-23T08:19:05Z</time>
      </trkpt>
      <trkpt lat="46.36905" lon="2.40648">
        <ele>363</ele>
        <time>2018-08-23T08:19:11Z</time>
      </trkpt>
      <trkpt lat="46.369" lon="2.40636">
        <ele>363</ele>
        <time>2018-08-23T08:19:24Z</time>
      </trkpt>
      <trkpt lat="46.36891" lon="2.4063">
        <ele>363</ele>
        <time>2018-08-23T08:19:32Z</time>
      </trkpt>
      <trkpt lat="46.36882" lon="2.40627">
        <ele>363</ele>
        <time>2018-08-23T08:19:38Z</time>
      </trkpt>
      <trkpt lat="46.36873" lon="2.40624">
        <ele>362</ele>
        <time>2018-08-23T08:19:45Z</time>
      </trkpt>
      <trkpt lat="46.36863" lon="2.40624">
        <ele>362</ele>
        <time>2018-08-23T08:19:54Z</time>
      </trkpt>
      <trkpt lat="46.36853" lon="2.40625">
        <ele>362</ele>
        <time>2018-08-23T08:20:01Z</time>
      </trkpt>
      <trkpt lat="46.36844" lon="2.40625">
        <ele>362</ele>
        <time>2018-08-23T08:20:08Z</time>
      </trkpt>
      <trkpt lat="46.36835" lon="2.40631">
        <ele>362</ele>
        <time>2018-08-23T08:20:19Z</time>
      </trkpt>
      <trkpt lat="46.36826" lon="2.40638">
        <ele>359</ele>
        <time>2018-08-23T08:20:26Z</time>
      </trkpt>
      <trkpt lat="46.36817" lon="2.40644">
        <ele>359</ele>
        <time>2018-08-23T08:20:34Z</time>
      </trkpt>
      <trkpt lat="46.36809" lon="2.40649">
        <ele>358</ele>
        <time>2018-08-23T08:20:40Z</time>
      </trkpt>
      <trkpt lat="46.368" lon="2.40657">
        <ele>358</ele>
        <time>2018-08-23T08:20:53Z</time>
      </trkpt>
      <trkpt lat="46.36793" lon="2.40668">
        <ele>357</ele>
        <time>2018-08-23T08:20:59Z</time>
      </trkpt>
      <trkpt lat="46.36786" lon="2.40677">
        <ele>357</ele>
        <time>2018-08-23T08:21:04Z</time>
      </trkpt>
      <trkpt lat="46.36779" lon="2.40687">
        <ele>357</ele>
        <time>2018-08-23T08:21:17Z</time>
      </trkpt>
      <trkpt lat="46.36773" lon="2.40699">
        <ele>357</ele>
        <time>2018-08-23T08:21:24Z</time>
      </trkpt>
      <trkpt lat="46.36766" lon="2.40711">
        <ele>357</ele>
        <time>2018-08-23T08:21:38Z</time>
      </trkpt>
      <trkpt lat="46.36757" lon="2.40718">
        <ele>356</ele>
        <time>2018-08-23T08:21:48Z</time>
      </trkpt>
      <trkpt lat="46.36748" lon="2.40721">
        <ele>356</ele>
        <time>2018-08-23T08:21:54Z</time>
      </trkpt>
      <trkpt lat="46.36739" lon="2.40728">
        <ele>356</ele>
        <time>2018-08-23T08:22:05Z</time>
      </trkpt>
      <trkpt lat="46.36731" lon="2.40736">
        <ele>356</ele>
        <time>2018-08-23T08:22:12Z</time>
      </trkpt>
      <trkpt lat="46.36722" lon="2.40739">
        <ele>356</ele>
        <time>2018-08-23T08:22:21Z</time>
      </trkpt>
      <trkpt lat="46.36712" lon="2.40745">
        <ele>356</ele>
        <time>2018-08-23T08:22:30Z</time>
      </trkpt>
      <trkpt lat="46.36704" lon="2.40752">
        <ele>357</ele>
        <time>2018-08-23T08:22:38Z</time>
      </trkpt>
      <trkpt lat="46.36695" lon="2.40759">
        <ele>357</ele>
        <time>2018-08-23T08:22:47Z</time>
      </trkpt>
      <trkpt lat="46.36686" lon="2.40765">
        <ele>357</ele>
        <time>2018-08-23T08:22:56Z</time>
      </trkpt>
      <trkpt lat="46.36677" lon="2.40769">
        <ele>357</ele>
        <time>2018-08-23T08:23:04Z</time>
      </trkpt>
      <trkpt lat="46.3667" lon="2.40775">
        <ele>358</ele>
        <time>2018-08-23T08:23:12Z</time>
      </trkpt>
      <trkpt lat="46.36665" lon="2.40786">
        <ele>359</ele>
        <time>2018-08-23T08:23:20Z</time>
      </trkpt>
      <trkpt lat="46.36659" lon="2.40797">
        <ele>360</ele>
        <time>2018-08-23T08:23:28Z</time>
      </trkpt>
      <trkpt lat="46.36653" lon="2.40808">
        <ele>360</ele>
        <time>2018-08-23T08:23:36Z</time>
      </trkpt>
      <trkpt lat="46.36648" lon="2.4082">
        <ele>361</ele>
        <time>2018-08-23T08:23:44Z</time>
      </trkpt>
      <trkpt lat="46.36641" lon="2.40828">
        <ele>361</ele>
        <time>2018-08-23T08:23:52Z</time>
      </trkpt>
      <trkpt lat="46.36632" lon="2.40833">
        <ele>361</ele>
        <time>2018-08-23T08:24:00Z</time>
      </trkpt>
      <trkpt lat="46.36623" lon="2.40832">
        <ele>361</ele>
        <time>2018-08-23T08:24:09Z</time>
      </trkpt>
      <trkpt lat="46.36613" lon="2.40831">
        <ele>362</ele>
        <time>2018-08-23T08:24:18Z</time>
      </trkpt>
      <trkpt lat="46.36603" lon="2.40832">
        <ele>362</ele>
        <time>2018-08-23T08:24:26Z</time>
      </trkpt>
      <trkpt lat="46.36594" lon="2.40836">
        <ele>364</ele>
        <time>2018-08-23T08:24:34Z</time>
      </trkpt>
      <trkpt lat="46.36586" lon="2.40843">
        <ele>364</ele>
        <time>2018-08-23T08:24:42Z</time>
      </trkpt>
      <trkpt lat="46.36578" lon="2.40849">
        <ele>364</ele>
        <time>2018-08-23T08:24:50Z</time>
      </trkpt>
      <trkpt lat="46.36568" lon="2.40847">
        <ele>364</ele>
        <time>2018-08-23T08:24:58Z</time>
      </trkpt>
      <trkpt lat="46.36558" lon="2.4085">
        <ele>364</ele>
        <time>2018-08-23T08:25:50Z</time>
      </trkpt>
      <trkpt lat="46.3655" lon="2.40843">
        <ele>364</ele>
        <time>2018-08-23T08:26:03Z</time>
      </trkpt>
      <trkpt lat="46.36548" lon="2.4083">
        <ele>364</ele>
        <time>2018-08-23T08:26:14Z</time>
      </trkpt>
      <trkpt lat="46.36546" lon="2.40816">
        <ele>363</ele>
        <time>2018-08-23T08:26:23Z</time>
      </trkpt>
      <trkpt lat="46.36544" lon="2.40802">
        <ele>363</ele>
        <time>2018-08-23T08:26:34Z</time>
      </trkpt>
      <trkpt lat="46.3654" lon="2.40788">
        <ele>363</ele>
        <time>2018-08-23T08:26:43Z</time>
      </trkpt>
      <trkpt lat="46.36538" lon="2.40775">
        <ele>363</ele>
        <time>2018-08-23T08:26:51Z</time>
      </trkpt>
      <trkpt lat="46.36533" lon="2.40764">
        <ele>363</ele>
        <time>2018-08-23T08:27:00Z</time>
      </trkpt>
      <trkpt lat="46.36528" lon="2.40752">
        <ele>363</ele>
        <time>2018-08-23T08:27:08Z</time>
      </trkpt>
      <trkpt lat="46.36526" lon="2.40739">
        <ele>363</ele>
        <time>2018-08-23T08:27:17Z</time>
      </trkpt>
      <trkpt lat="46.36524" lon="2.40725">
        <ele>363</ele>
        <time>2018-08-23T08:27:25Z</time>
      </trkpt>
      <trkpt lat="46.36523" lon="2.40712">
        <ele>363</ele>
        <time>2018-08-23T08:27:33Z</time>
      </trkpt>
      <trkpt lat="46.36523" lon="2.40698">
        <ele>363</ele>
        <time>2018-08-23T08:27:42Z</time>
      </trkpt>
      <trkpt lat="46.36526" lon="2.40684">
        <ele>363</ele>
        <time>2018-08-23T08:27:51Z</time>
      </trkpt>
      <trkpt lat="46.36527" lon="2.4067">
        <ele>363</ele>
        <time>2018-08-23T08:28:00Z</time>
      </trkpt>
      <trkpt lat="46.36526" lon="2.40656">
        <ele>364</ele>
        <time>2018-08-23T08:28:09Z</time>
      </trkpt>
      <trkpt lat="46.36528" lon="2.40643">
        <ele>364</ele>
        <time>2018-08-23T08:28:17Z</time>
      </trkpt>
      <trkpt lat="46.3653" lon="2.4063">
        <ele>364</ele>
        <time>2018-08-23T08:28:24Z</time>
      </trkpt>
      <trkpt lat="46.36529" lon="2.40615">
        <ele>364</ele>
        <time>2018-08-23T08:28:33Z</time>
      </trkpt>
      <trkpt lat="46.36523" lon="2.40604">
        <ele>364</ele>
        <time>2018-08-23T08:28:42Z</time>
      </trkpt>
      <trkpt lat="46.36515" lon="2.40597">
        <ele>365</ele>
        <time>2018-08-23T08:28:51Z</time>
      </trkpt>
      <trkpt lat="46.36507" lon="2.40588">
        <ele>366</ele>
        <time>2018-08-23T08:28:58Z</time>
      </trkpt>
      <trkpt lat="46.365" lon="2.40579">
        <ele>367</ele>
        <time>2018-08-23T08:29:05Z</time>
      </trkpt>
      <trkpt lat="46.36493" lon="2.40569">
        <ele>369</ele>
        <time>2018-08-23T08:29:13Z</time>
      </trkpt>
      <trkpt lat="46.36487" lon="2.40559">
        <ele>369</ele>
        <time>2018-08-23T08:29:21Z</time>
      </trkpt>
      <trkpt lat="46.3648" lon="2.40548">
        <ele>370</ele>
        <time>2018-08-23T08:29:30Z</time>
      </trkpt>
      <trkpt lat="46.36475" lon="2.40537">
        <ele>370</ele>
        <time>2018-08-23T08:29:40Z</time>
      </trkpt>
      <trkpt lat="46.36477" lon="2.40522">
        <ele>370</ele>
        <time>2018-08-23T08:29:51Z</time>
      </trkpt>
      <trkpt lat="46.36481" lon="2.4051">
        <ele>370</ele>
        <time>2018-08-23T08:29:58Z</time>
      </trkpt>
      <trkpt lat="46.36482" lon="2.40497">
        <ele>372</ele>
        <time>2018-08-23T08:30:08Z</time>
      </trkpt>
      <trkpt lat="46.36481" lon="2.40482">
        <ele>373</ele>
        <time>2018-08-23T08:30:18Z</time>
      </trkpt>
      <trkpt lat="46.36483" lon="2.40468">
        <ele>373</ele>
        <time>2018-08-23T08:30:26Z</time>
      </trkpt>
      <trkpt lat="46.36483" lon="2.40468">
        <ele>373</ele>
        <time>2018-08-23T08:30:26Z</time>
      </trkpt>
      <trkpt lat="46.36486" lon="2.40455">
        <ele>374</ele>
        <time>2018-08-23T08:30:34Z</time>
      </trkpt>
      <trkpt lat="46.36489" lon="2.40442">
        <ele>374</ele>
        <time>2018-08-23T08:30:44Z</time>
      </trkpt>
      <trkpt lat="46.3649" lon="2.40429">
        <ele>375</ele>
        <time>2018-08-23T08:30:53Z</time>
      </trkpt>
      <trkpt lat="46.36494" lon="2.40416">
        <ele>376</ele>
        <time>2018-08-23T08:31:03Z</time>
      </trkpt>
      <trkpt lat="46.36498" lon="2.40403">
        <ele>376</ele>
        <time>2018-08-23T08:31:13Z</time>
      </trkpt>
      <trkpt lat="46.36502" lon="2.40391">
        <ele>374</ele>
        <time>2018-08-23T08:31:24Z</time>
      </trkpt>
      <trkpt lat="46.36504" lon="2.40378">
        <ele>375</ele>
        <time>2018-08-23T08:31:33Z</time>
      </trkpt>
      <trkpt lat="46.36508" lon="2.40365">
        <ele>375</ele>
        <time>2018-08-23T08:31:41Z</time>
      </trkpt>
      <trkpt lat="46.36511" lon="2.40351">
        <ele>375</ele>
        <time>2018-08-23T08:31:50Z</time>
      </trkpt>
      <trkpt lat="46.36515" lon="2.4034">
        <ele>376</ele>
        <time>2018-08-23T08:31:57Z</time>
      </trkpt>
      <trkpt lat="46.36514" lon="2.40325">
        <ele>377</ele>
        <time>2018-08-23T08:32:07Z</time>
      </trkpt>
      <trkpt lat="46.36516" lon="2.40312">
        <ele>377</ele>
        <time>2018-08-23T08:32:16Z</time>
      </trkpt>
      <trkpt lat="46.36516" lon="2.40298">
        <ele>377</ele>
        <time>2018-08-23T08:32:24Z</time>
      </trkpt>
      <trkpt lat="46.36513" lon="2.40285">
        <ele>378</ele>
        <time>2018-08-23T08:32:33Z</time>
      </trkpt>
      <trkpt lat="46.36507" lon="2.40274">
        <ele>378</ele>
        <time>2018-08-23T08:32:42Z</time>
      </trkpt>
      <trkpt lat="46.36504" lon="2.40262">
        <ele>380</ele>
        <time>2018-08-23T08:32:51Z</time>
      </trkpt>
      <trkpt lat="46.36501" lon="2.40249">
        <ele>382</ele>
        <time>2018-08-23T08:33:00Z</time>
      </trkpt>
      <trkpt lat="46.365" lon="2.40234">
        <ele>380</ele>
        <time>2018-08-23T08:33:10Z</time>
      </trkpt>
      <trkpt lat="46.36501" lon="2.4022">
        <ele>380</ele>
        <time>2018-08-23T08:33:17Z</time>
      </trkpt>
      <trkpt lat="46.36498" lon="2.40207">
        <ele>383</ele>
        <time>2018-08-23T08:33:25Z</time>
      </trkpt>
      <trkpt lat="46.36496" lon="2.40193">
        <ele>383</ele>
        <time>2018-08-23T08:33:34Z</time>
      </trkpt>
      <trkpt lat="46.36494" lon="2.4018">
        <ele>383</ele>
        <time>2018-08-23T08:33:43Z</time>
      </trkpt>
      <trkpt lat="46.36496" lon="2.40166">
        <ele>383</ele>
        <time>2018-08-23T08:33:53Z</time>
      </trkpt>
      <trkpt lat="46.36497" lon="2.40152">
        <ele>384</ele>
        <time>2018-08-23T08:34:05Z</time>
      </trkpt>
      <trkpt lat="46.36493" lon="2.4014">
        <ele>385</ele>
        <time>2018-08-23T08:34:34Z</time>
      </trkpt>
      <trkpt lat="46.36494" lon="2.40126">
        <ele>385</ele>
        <time>2018-08-23T08:34:44Z</time>
      </trkpt>
      <trkpt lat="46.36492" lon="2.40113">
        <ele>385</ele>
        <time>2018-08-23T08:34:54Z</time>
      </trkpt>
      <trkpt lat="46.36491" lon="2.401">
        <ele>385</ele>
        <time>2018-08-23T08:35:03Z</time>
      </trkpt>
      <trkpt lat="46.36491" lon="2.40085">
        <ele>385</ele>
        <time>2018-08-23T08:35:11Z</time>
      </trkpt>
      <trkpt lat="46.36491" lon="2.40072">
        <ele>386</ele>
        <time>2018-08-23T08:35:19Z</time>
      </trkpt>
      <trkpt lat="46.36489" lon="2.40058">
        <ele>386</ele>
        <time>2018-08-23T08:35:27Z</time>
      </trkpt>
      <trkpt lat="46.3649" lon="2.40045">
        <ele>386</ele>
        <time>2018-08-23T08:35:35Z</time>
      </trkpt>
      <trkpt lat="46.3649" lon="2.40031">
        <ele>386</ele>
        <time>2018-08-23T08:35:43Z</time>
      </trkpt>
      <trkpt lat="46.36489" lon="2.40017">
        <ele>386</ele>
        <time>2018-08-23T08:35:52Z</time>
      </trkpt>
      <trkpt lat="46.36487" lon="2.40004">
        <ele>386</ele>
        <time>2018-08-23T08:35:59Z</time>
      </trkpt>
      <trkpt lat="46.36485" lon="2.39992">
        <ele>385</ele>
        <time>2018-08-23T08:36:07Z</time>
      </trkpt>
      <trkpt lat="46.36485" lon="2.39978">
        <ele>385</ele>
        <time>2018-08-23T08:36:15Z</time>
      </trkpt>
      <trkpt lat="46.36483" lon="2.39965">
        <ele>385</ele>
        <time>2018-08-23T08:36:24Z</time>
      </trkpt>
      <trkpt lat="46.36482" lon="2.39951">
        <ele>385</ele>
        <time>2018-08-23T08:36:34Z</time>
      </trkpt>
      <trkpt lat="46.3648" lon="2.39937">
        <ele>385</ele>
        <time>2018-08-23T08:36:45Z</time>
      </trkpt>
      <trkpt lat="46.3648" lon="2.39924">
        <ele>385</ele>
        <time>2018-08-23T08:36:57Z</time>
      </trkpt>
      <trkpt lat="46.36478" lon="2.39911">
        <ele>385</ele>
        <time>2018-08-23T08:37:06Z</time>
      </trkpt>
      <trkpt lat="46.36477" lon="2.39897">
        <ele>385</ele>
        <time>2018-08-23T08:37:16Z</time>
      </trkpt>
      <trkpt lat="46.36474" lon="2.39884">
        <ele>385</ele>
        <time>2018-08-23T08:37:24Z</time>
      </trkpt>
      <trkpt lat="46.36474" lon="2.39869">
        <ele>385</ele>
        <time>2018-08-23T08:37:33Z</time>
      </trkpt>
      <trkpt lat="46.36473" lon="2.39856">
        <ele>385</ele>
        <time>2018-08-23T08:37:42Z</time>
      </trkpt>
      <trkpt lat="46.36472" lon="2.39842">
        <ele>385</ele>
        <time>2018-08-23T08:37:51Z</time>
      </trkpt>
      <trkpt lat="46.36471" lon="2.39829">
        <ele>384</ele>
        <time>2018-08-23T08:37:59Z</time>
      </trkpt>
      <trkpt lat="46.3647" lon="2.39816">
        <ele>384</ele>
        <time>2018-08-23T08:38:08Z</time>
      </trkpt>
      <trkpt lat="46.36467" lon="2.39802">
        <ele>384</ele>
        <time>2018-08-23T08:38:17Z</time>
      </trkpt>
      <trkpt lat="46.36461" lon="2.39791">
        <ele>384</ele>
        <time>2018-08-23T08:38:26Z</time>
      </trkpt>
      <trkpt lat="46.36458" lon="2.39778">
        <ele>384</ele>
        <time>2018-08-23T08:38:34Z</time>
      </trkpt>
      <trkpt lat="46.36455" lon="2.39765">
        <ele>384</ele>
        <time>2018-08-23T08:38:43Z</time>
      </trkpt>
      <trkpt lat="46.36448" lon="2.39756">
        <ele>384</ele>
        <time>2018-08-23T08:40:22Z</time>
      </trkpt>
      <trkpt lat="46.36445" lon="2.39743">
        <ele>383</ele>
        <time>2018-08-23T08:40:43Z</time>
      </trkpt>
      <trkpt lat="46.36442" lon="2.39731">
        <ele>383</ele>
        <time>2018-08-23T08:40:55Z</time>
      </trkpt>
      <trkpt lat="46.36439" lon="2.39717">
        <ele>382</ele>
        <time>2018-08-23T08:41:04Z</time>
      </trkpt>
      <trkpt lat="46.36436" lon="2.39705">
        <ele>382</ele>
        <time>2018-08-23T08:41:13Z</time>
      </trkpt>
      <trkpt lat="46.36432" lon="2.39691">
        <ele>382</ele>
        <time>2018-08-23T08:41:21Z</time>
      </trkpt>
      <trkpt lat="46.3643" lon="2.39678">
        <ele>382</ele>
        <time>2018-08-23T08:41:30Z</time>
      </trkpt>
      <trkpt lat="46.36425" lon="2.39667">
        <ele>383</ele>
        <time>2018-08-23T08:41:39Z</time>
      </trkpt>
      <trkpt lat="46.36421" lon="2.39654">
        <ele>382</ele>
        <time>2018-08-23T08:41:47Z</time>
      </trkpt>
      <trkpt lat="46.36418" lon="2.39641">
        <ele>381</ele>
        <time>2018-08-23T08:41:56Z</time>
      </trkpt>
      <trkpt lat="46.36415" lon="2.39627">
        <ele>382</ele>
        <time>2018-08-23T08:42:03Z</time>
      </trkpt>
      <trkpt lat="46.36414" lon="2.39614">
        <ele>382</ele>
        <time>2018-08-23T08:42:11Z</time>
      </trkpt>
      <trkpt lat="46.36414" lon="2.396">
        <ele>381</ele>
        <time>2018-08-23T08:42:20Z</time>
      </trkpt>
      <trkpt lat="46.36418" lon="2.39588">
        <ele>380</ele>
        <time>2018-08-23T08:42:29Z</time>
      </trkpt>
      <trkpt lat="46.36423" lon="2.39576">
        <ele>379</ele>
        <time>2018-08-23T08:42:36Z</time>
      </trkpt>
      <trkpt lat="46.36428" lon="2.39563">
        <ele>378</ele>
        <time>2018-08-23T08:42:42Z</time>
      </trkpt>
      <trkpt lat="46.36435" lon="2.39554">
        <ele>378</ele>
        <time>2018-08-23T08:42:55Z</time>
      </trkpt>
      <trkpt lat="46.36443" lon="2.39545">
        <ele>377</ele>
        <time>2018-08-23T08:43:01Z</time>
      </trkpt>
      <trkpt lat="46.36448" lon="2.39534">
        <ele>377</ele>
        <time>2018-08-23T08:43:11Z</time>
      </trkpt>
      <trkpt lat="46.36453" lon="2.39523">
        <ele>377</ele>
        <time>2018-08-23T08:43:17Z</time>
      </trkpt>
      <trkpt lat="46.36459" lon="2.39511">
        <ele>377</ele>
        <time>2018-08-23T08:43:23Z</time>
      </trkpt>
      <trkpt lat="46.36464" lon="2.395">
        <ele>376</ele>
        <time>2018-08-23T08:43:35Z</time>
      </trkpt>
      <trkpt lat="46.36468" lon="2.39488">
        <ele>375</ele>
        <time>2018-08-23T08:43:43Z</time>
      </trkpt>
      <trkpt lat="46.36472" lon="2.39475">
        <ele>375</ele>
        <time>2018-08-23T08:43:53Z</time>
      </trkpt>
      <trkpt lat="46.36478" lon="2.39462">
        <ele>375</ele>
        <time>2018-08-23T08:44:01Z</time>
      </trkpt>
      <trkpt lat="46.36485" lon="2.39452">
        <ele>374</ele>
        <time>2018-08-23T08:44:07Z</time>
      </trkpt>
      <trkpt lat="46.36489" lon="2.3944">
        <ele>374</ele>
        <time>2018-08-23T08:44:16Z</time>
      </trkpt>
      <trkpt lat="46.36495" lon="2.39428">
        <ele>374</ele>
        <time>2018-08-23T08:44:23Z</time>
      </trkpt>
      <trkpt lat="46.36499" lon="2.39415">
        <ele>373</ele>
        <time>2018-08-23T08:44:31Z</time>
      </trkpt>
      <trkpt lat="46.36504" lon="2.39404">
        <ele>374</ele>
        <time>2018-08-23T08:44:43Z</time>
      </trkpt>
      <trkpt lat="46.36511" lon="2.39394">
        <ele>375</ele>
        <time>2018-08-23T08:44:52Z</time>
      </trkpt>
      <trkpt lat="46.36518" lon="2.39383">
        <ele>376</ele>
        <time>2018-08-23T08:45:01Z</time>
      </trkpt>
      <trkpt lat="46.36525" lon="2.39375">
        <ele>376</ele>
        <time>2018-08-23T08:45:11Z</time>
      </trkpt>
      <trkpt lat="46.36533" lon="2.39367">
        <ele>376</ele>
        <time>2018-08-23T08:45:20Z</time>
      </trkpt>
      <trkpt lat="46.36541" lon="2.39359">
        <ele>377</ele>
        <time>2018-08-23T08:45:29Z</time>
      </trkpt>
      <trkpt lat="46.36548" lon="2.39349">
        <ele>377</ele>
        <time>2018-08-23T08:45:40Z</time>
      </trkpt>
      <trkpt lat="46.36554" lon="2.39339">
        <ele>377</ele>
        <time>2018-08-23T08:45:50Z</time>
      </trkpt>
      <trkpt lat="46.36562" lon="2.3933">
        <ele>381</ele>
        <time>2018-08-23T08:45:59Z</time>
      </trkpt>
      <trkpt lat="46.36569" lon="2.39321">
        <ele>381</ele>
        <time>2018-08-23T08:46:07Z</time>
      </trkpt>
      <trkpt lat="46.36576" lon="2.39311">
        <ele>382</ele>
        <time>2018-08-23T08:46:17Z</time>
      </trkpt>
      <trkpt lat="46.36581" lon="2.393">
        <ele>382</ele>
        <time>2018-08-23T08:46:25Z</time>
      </trkpt>
      <trkpt lat="46.36588" lon="2.39291">
        <ele>384</ele>
        <time>2018-08-23T08:46:33Z</time>
      </trkpt>
      <trkpt lat="46.36588" lon="2.39291">
        <ele>384</ele>
        <time>2018-08-23T08:46:33Z</time>
      </trkpt>
      <trkpt lat="46.36595" lon="2.39281">
        <ele>385</ele>
        <time>2018-08-23T08:46:41Z</time>
      </trkpt>
      <trkpt lat="46.36602" lon="2.39271">
        <ele>386</ele>
        <time>2018-08-23T08:46:50Z</time>
      </trkpt>
      <trkpt lat="46.36609" lon="2.39261">
        <ele>386</ele>
        <time>2018-08-23T08:46:59Z</time>
      </trkpt>
      <trkpt lat="46.36615" lon="2.39252">
        <ele>386</ele>
        <time>2018-08-23T08:47:08Z</time>
      </trkpt>
      <trkpt lat="46.36622" lon="2.39243">
        <ele>390</ele>
        <time>2018-08-23T08:47:16Z</time>
      </trkpt>
      <trkpt lat="46.36629" lon="2.39232">
        <ele>390</ele>
        <time>2018-08-23T08:47:26Z</time>
      </trkpt>
      <trkpt lat="46.36635" lon="2.39222">
        <ele>390</ele>
        <time>2018-08-23T08:47:35Z</time>
      </trkpt>
      <trkpt lat="46.36639" lon="2.39211">
        <ele>390</ele>
        <time>2018-08-23T08:47:44Z</time>
      </trkpt>
      <trkpt lat="46.36645" lon="2.39199">
        <ele>391</ele>
        <time>2018-08-23T08:47:53Z</time>
      </trkpt>
      <trkpt lat="46.36651" lon="2.39188">
        <ele>391</ele>
        <time>2018-08-23T08:48:02Z</time>
      </trkpt>
      <trkpt lat="46.36658" lon="2.39177">
        <ele>391</ele>
        <time>2018-08-23T08:48:11Z</time>
      </trkpt>
      <trkpt lat="46.36665" lon="2.39166">
        <ele>392</ele>
        <time>2018-08-23T08:48:20Z</time>
      </trkpt>
      <trkpt lat="46.36671" lon="2.39155">
        <ele>392</ele>
        <time>2018-08-23T08:48:29Z</time>
      </trkpt>
      <trkpt lat="46.36674" lon="2.39143">
        <ele>392</ele>
        <time>2018-08-23T08:48:39Z</time>
      </trkpt>
      <trkpt lat="46.36677" lon="2.3913">
        <ele>392</ele>
        <time>2018-08-23T08:48:54Z</time>
      </trkpt>
      <trkpt lat="46.3668" lon="2.39117">
        <ele>392</ele>
        <time>2018-08-23T08:49:03Z</time>
      </trkpt>
      <trkpt lat="46.36682" lon="2.39104">
        <ele>392</ele>
        <time>2018-08-23T08:49:11Z</time>
      </trkpt>
      <trkpt lat="46.36683" lon="2.39091">
        <ele>392</ele>
        <time>2018-08-23T08:49:19Z</time>
      </trkpt>
      <trkpt lat="46.36685" lon="2.39077">
        <ele>393</ele>
        <time>2018-08-23T08:49:28Z</time>
      </trkpt>
      <trkpt lat="46.36686" lon="2.39063">
        <ele>393</ele>
        <time>2018-08-23T08:49:37Z</time>
      </trkpt>
      <trkpt lat="46.36685" lon="2.39049">
        <ele>393</ele>
        <time>2018-08-23T08:49:45Z</time>
      </trkpt>
      <trkpt lat="46.36685" lon="2.39033">
        <ele>393</ele>
        <time>2018-08-23T08:49:53Z</time>
      </trkpt>
      <trkpt lat="46.36688" lon="2.3902">
        <ele>393</ele>
        <time>2018-08-23T08:50:01Z</time>
      </trkpt>
      <trkpt lat="46.36688" lon="2.39006">
        <ele>394</ele>
        <time>2018-08-23T08:50:11Z</time>
      </trkpt>
      <trkpt lat="46.36686" lon="2.38992">
        <ele>394</ele>
        <time>2018-08-23T08:50:20Z</time>
      </trkpt>
      <trkpt lat="46.36684" lon="2.38978">
        <ele>394</ele>
        <time>2018-08-23T08:50:35Z</time>
      </trkpt>
      <trkpt lat="46.36686" lon="2.38963">
        <ele>395</ele>
        <time>2018-08-23T08:50:40Z</time>
      </trkpt>
      <trkpt lat="46.36688" lon="2.3895">
        <ele>395</ele>
        <time>2018-08-23T08:50:50Z</time>
      </trkpt>
      <trkpt lat="46.36685" lon="2.38936">
        <ele>395</ele>
        <time>2018-08-23T08:50:58Z</time>
      </trkpt>
      <trkpt lat="46.3668" lon="2.38924">
        <ele>395</ele>
        <time>2018-08-23T08:51:09Z</time>
      </trkpt>
      <trkpt lat="46.36684" lon="2.38911">
        <ele>396</ele>
        <time>2018-08-23T08:52:44Z</time>
      </trkpt>
      <trkpt lat="46.36685" lon="2.38898">
        <ele>396</ele>
        <time>2018-08-23T08:53:56Z</time>
      </trkpt>
      <trkpt lat="46.3668" lon="2.38886">
        <ele>396</ele>
        <time>2018-08-23T08:54:06Z</time>
      </trkpt>
      <trkpt lat="46.36679" lon="2.38871">
        <ele>396</ele>
        <time>2018-08-23T08:54:14Z</time>
      </trkpt>
      <trkpt lat="46.36678" lon="2.38858">
        <ele>396</ele>
        <time>2018-08-23T08:54:22Z</time>
      </trkpt>
      <trkpt lat="46.36674" lon="2.38846">
        <ele>397</ele>
        <time>2018-08-23T08:54:31Z</time>
      </trkpt>
      <trkpt lat="46.3667" lon="2.38832">
        <ele>397</ele>
        <time>2018-08-23T08:54:40Z</time>
      </trkpt>
      <trkpt lat="46.36666" lon="2.38821">
        <ele>398</ele>
        <time>2018-08-23T08:54:48Z</time>
      </trkpt>
      <trkpt lat="46.36664" lon="2.38807">
        <ele>399</ele>
        <time>2018-08-23T08:54:57Z</time>
      </trkpt>
      <trkpt lat="46.36664" lon="2.38793">
        <ele>399</ele>
        <time>2018-08-23T08:55:06Z</time>
      </trkpt>
      <trkpt lat="46.36664" lon="2.38779">
        <ele>399</ele>
        <time>2018-08-23T08:55:15Z</time>
      </trkpt>
      <trkpt lat="46.36661" lon="2.38765">
        <ele>399</ele>
        <time>2018-08-23T08:55:24Z</time>
      </trkpt>
      <trkpt lat="46.36659" lon="2.38752">
        <ele>398</ele>
        <time>2018-08-23T08:55:32Z</time>
      </trkpt>
      <trkpt lat="46.36657" lon="2.38738">
        <ele>399</ele>
        <time>2018-08-23T08:55:41Z</time>
      </trkpt>
      <trkpt lat="46.36657" lon="2.38725">
        <ele>400</ele>
        <time>2018-08-23T08:55:50Z</time>
      </trkpt>
      <trkpt lat="46.36656" lon="2.38711">
        <ele>400</ele>
        <time>2018-08-23T08:55:59Z</time>
      </trkpt>
      <trkpt lat="46.36654" lon="2.38697">
        <ele>400</ele>
        <time>2018-08-23T08:56:07Z</time>
      </trkpt>
      <trkpt lat="46.36652" lon="2.38683">
        <ele>400</ele>
        <time>2018-08-23T08:56:15Z</time>
      </trkpt>
      <trkpt lat="46.36649" lon="2.3867">
        <ele>400</ele>
        <time>2018-08-23T08:56:24Z</time>
      </trkpt>
      <trkpt lat="46.36652" lon="2.38656">
        <ele>401</ele>
        <time>2018-08-23T08:56:38Z</time>
      </trkpt>
      <trkpt lat="46.36655" lon="2.38644">
        <ele>401</ele>
        <time>2018-08-23T08:56:53Z</time>
      </trkpt>
      <trkpt lat="46.36663" lon="2.38635">
        <ele>402</ele>
        <time>2018-08-23T08:57:29Z</time>
      </trkpt>
      <trkpt lat="46.36668" lon="2.38625">
        <ele>402</ele>
        <time>2018-08-23T08:57:40Z</time>
      </trkpt>
      <trkpt lat="46.36674" lon="2.38614">
        <ele>402</ele>
        <time>2018-08-23T08:57:49Z</time>
      </trkpt>
      <trkpt lat="46.3668" lon="2.38604">
        <ele>402</ele>
        <time>2018-08-23T08:57:59Z</time>
      </trkpt>
      <trkpt lat="46.36687" lon="2.38593">
        <ele>402</ele>
        <time>2018-08-23T08:58:07Z</time>
      </trkpt>
      <trkpt lat="46.36694" lon="2.38584">
        <ele>402</ele>
        <time>2018-08-23T08:58:16Z</time>
      </trkpt>
      <trkpt lat="46.36699" lon="2.38572">
        <ele>403</ele>
        <time>2018-08-23T08:58:26Z</time>
      </trkpt>
      <trkpt lat="46.36705" lon="2.38561">
        <ele>403</ele>
        <time>2018-08-23T08:58:34Z</time>
      </trkpt>
      <trkpt lat="46.36712" lon="2.38552">
        <ele>403</ele>
        <time>2018-08-23T08:58:41Z</time>
      </trkpt>
      <trkpt lat="46.36721" lon="2.38546">
        <ele>404</ele>
        <time>2018-08-23T08:58:49Z</time>
      </trkpt>
      <trkpt lat="46.3673" lon="2.38541">
        <ele>404</ele>
        <time>2018-08-23T08:58:59Z</time>
      </trkpt>
      <trkpt lat="46.36737" lon="2.38533">
        <ele>404</ele>
        <time>2018-08-23T08:59:07Z</time>
      </trkpt>
      <trkpt lat="46.3674" lon="2.3852">
        <ele>404</ele>
        <time>2018-08-23T08:59:16Z</time>
      </trkpt>
      <trkpt lat="46.36746" lon="2.38509">
        <ele>404</ele>
        <time>2018-08-23T08:59:25Z</time>
      </trkpt>
      <trkpt lat="46.36747" lon="2.38495">
        <ele>405</ele>
        <time>2018-08-23T08:59:39Z</time>
      </trkpt>
      <trkpt lat="46.36747" lon="2.3848">
        <ele>404</ele>
        <time>2018-08-23T08:59:46Z</time>
      </trkpt>
      <trkpt lat="46.36748" lon="2.38467">
        <ele>404</ele>
        <time>2018-08-23T08:59:54Z</time>
      </trkpt>
      <trkpt lat="46.36749" lon="2.38453">
        <ele>404</ele>
        <time>2018-08-23T09:00:05Z</time>
      </trkpt>
      <trkpt lat="46.36755" lon="2.38443">
        <ele>404</ele>
        <time>2018-08-23T09:00:13Z</time>
      </trkpt>
      <trkpt lat="46.36761" lon="2.38431">
        <ele>404</ele>
        <time>2018-08-23T09:00:24Z</time>
      </trkpt>
      <trkpt lat="46.36763" lon="2.38418">
        <ele>404</ele>
        <time>2018-08-23T09:00:37Z</time>
      </trkpt>
      <trkpt lat="46.3677" lon="2.38409">
        <ele>404</ele>
        <time>2018-08-23T09:00:45Z</time>
      </trkpt>
      <trkpt lat="46.36775" lon="2.38399">
        <ele>404</ele>
        <time>2018-08-23T09:00:57Z</time>
      </trkpt>
      <trkpt lat="46.36767" lon="2.38421">
        <ele>404</ele>
        <time>2018-08-23T09:04:42Z</time>
      </trkpt>
      <trkpt lat="46.36761" lon="2.38432">
        <ele>404</ele>
        <time>2018-08-23T09:04:48Z</time>
      </trkpt>
      <trkpt lat="46.36755" lon="2.38442">
        <ele>404</ele>
        <time>2018-08-23T09:04:55Z</time>
      </trkpt>
      <trkpt lat="46.36749" lon="2.38453">
        <ele>404</ele>
        <time>2018-08-23T09:05:04Z</time>
      </trkpt>
      <trkpt lat="46.36743" lon="2.38464">
        <ele>404</ele>
        <time>2018-08-23T09:05:12Z</time>
      </trkpt>
      <trkpt lat="46.36737" lon="2.38474">
        <ele>404</ele>
        <time>2018-08-23T09:05:20Z</time>
      </trkpt>
      <trkpt lat="46.36731" lon="2.38483">
        <ele>404</ele>
        <time>2018-08-23T09:05:29Z</time>
      </trkpt>
      <trkpt lat="46.36724" lon="2.38494">
        <ele>404</ele>
        <time>2018-08-23T09:05:37Z</time>
      </trkpt>
      <trkpt lat="46.36718" lon="2.38504">
        <ele>403</ele>
        <time>2018-08-23T09:05:44Z</time>
      </trkpt>
      <trkpt lat="46.36711" lon="2.38513">
        <ele>403</ele>
        <time>2018-08-23T09:05:51Z</time>
      </trkpt>
      <trkpt lat="46.36706" lon="2.38525">
        <ele>403</ele>
        <time>2018-08-23T09:06:01Z</time>
      </trkpt>
      <trkpt lat="46.36698" lon="2.38535">
        <ele>403</ele>
        <time>2018-08-23T09:06:07Z</time>
      </trkpt>
      <trkpt lat="46.36695" lon="2.3855">
        <ele>403</ele>
        <time>2018-08-23T09:06:15Z</time>
      </trkpt>
      <trkpt lat="46.3669" lon="2.38563">
        <ele>403</ele>
        <time>2018-08-23T09:06:26Z</time>
      </trkpt>
      <trkpt lat="46.36685" lon="2.38575">
        <ele>403</ele>
        <time>2018-08-23T09:06:32Z</time>
      </trkpt>
      <trkpt lat="46.36678" lon="2.38586">
        <ele>402</ele>
        <time>2018-08-23T09:06:41Z</time>
      </trkpt>
      <trkpt lat="46.36673" lon="2.38597">
        <ele>402</ele>
        <time>2018-08-23T09:06:49Z</time>
      </trkpt>
      <trkpt lat="46.36666" lon="2.38608">
        <ele>402</ele>
        <time>2018-08-23T09:07:02Z</time>
      </trkpt>
      <trkpt lat="46.36662" lon="2.3862">
        <ele>402</ele>
        <time>2018-08-23T09:07:11Z</time>
      </trkpt>
      <trkpt lat="46.36655" lon="2.38629">
        <ele>402</ele>
        <time>2018-08-23T09:07:19Z</time>
      </trkpt>
      <trkpt lat="46.36649" lon="2.38639">
        <ele>402</ele>
        <time>2018-08-23T09:07:28Z</time>
      </trkpt>
      <trkpt lat="46.36649" lon="2.38639">
        <ele>402</ele>
        <time>2018-08-23T09:07:28Z</time>
      </trkpt>
      <trkpt lat="46.36641" lon="2.3863">
        <ele>402</ele>
        <time>2018-08-23T09:07:45Z</time>
      </trkpt>
      <trkpt lat="46.3664" lon="2.38617">
        <ele>402</ele>
        <time>2018-08-23T09:07:54Z</time>
      </trkpt>
      <trkpt lat="46.3664" lon="2.38604">
        <ele>402</ele>
        <time>2018-08-23T09:08:01Z</time>
      </trkpt>
      <trkpt lat="46.36642" lon="2.3859">
        <ele>402</ele>
        <time>2018-08-23T09:08:08Z</time>
      </trkpt>
      <trkpt lat="46.36642" lon="2.38575">
        <ele>403</ele>
        <time>2018-08-23T09:08:16Z</time>
      </trkpt>
      <trkpt lat="46.36642" lon="2.38562">
        <ele>403</ele>
        <time>2018-08-23T09:08:23Z</time>
      </trkpt>
      <trkpt lat="46.36642" lon="2.38548">
        <ele>403</ele>
        <time>2018-08-23T09:08:33Z</time>
      </trkpt>
      <trkpt lat="46.36641" lon="2.38533">
        <ele>402</ele>
        <time>2018-08-23T09:08:43Z</time>
      </trkpt>
      <trkpt lat="46.36641" lon="2.38518">
        <ele>402</ele>
        <time>2018-08-23T09:08:49Z</time>
      </trkpt>
      <trkpt lat="46.3664" lon="2.38505">
        <ele>402</ele>
        <time>2018-08-23T09:08:58Z</time>
      </trkpt>
      <trkpt lat="46.36638" lon="2.3849">
        <ele>403</ele>
        <time>2018-08-23T09:09:04Z</time>
      </trkpt>
      <trkpt lat="46.36636" lon="2.38477">
        <ele>403</ele>
        <time>2018-08-23T09:09:10Z</time>
      </trkpt>
      <trkpt lat="46.36634" lon="2.38463">
        <ele>403</ele>
        <time>2018-08-23T09:09:20Z</time>
      </trkpt>
      <trkpt lat="46.36631" lon="2.38451">
        <ele>403</ele>
        <time>2018-08-23T09:09:28Z</time>
      </trkpt>
      <trkpt lat="46.36628" lon="2.38437">
        <ele>403</ele>
        <time>2018-08-23T09:09:36Z</time>
      </trkpt>
      <trkpt lat="46.36627" lon="2.38422">
        <ele>403</ele>
        <time>2018-08-23T09:09:42Z</time>
      </trkpt>
      <trkpt lat="46.36626" lon="2.38409">
        <ele>404</ele>
        <time>2018-08-23T09:09:49Z</time>
      </trkpt>
      <trkpt lat="46.36622" lon="2.38395">
        <ele>404</ele>
        <time>2018-08-23T09:09:59Z</time>
      </trkpt>
      <trkpt lat="46.36619" lon="2.38382">
        <ele>404</ele>
        <time>2018-08-23T09:10:05Z</time>
      </trkpt>
      <trkpt lat="46.36619" lon="2.38367">
        <ele>404</ele>
        <time>2018-08-23T09:10:16Z</time>
      </trkpt>
      <trkpt lat="46.36618" lon="2.38354">
        <ele>404</ele>
        <time>2018-08-23T09:10:22Z</time>
      </trkpt>
      <trkpt lat="46.36616" lon="2.3834">
        <ele>405</ele>
        <time>2018-08-23T09:10:28Z</time>
      </trkpt>
      <trkpt lat="46.36615" lon="2.38326">
        <ele>405</ele>
        <time>2018-08-23T09:10:39Z</time>
      </trkpt>
      <trkpt lat="46.36613" lon="2.38314">
        <ele>405</ele>
        <time>2018-08-23T09:10:46Z</time>
      </trkpt>
      <trkpt lat="46.36612" lon="2.38299">
        <ele>405</ele>
        <time>2018-08-23T09:10:57Z</time>
      </trkpt>
      <trkpt lat="46.36611" lon="2.38285">
        <ele>405</ele>
        <time>2018-08-23T09:11:04Z</time>
      </trkpt>
      <trkpt lat="46.3661" lon="2.3827">
        <ele>405</ele>
        <time>2018-08-23T09:11:13Z</time>
      </trkpt>
      <trkpt lat="46.36608" lon="2.38256">
        <ele>405</ele>
        <time>2018-08-23T09:11:19Z</time>
      </trkpt>
      <trkpt lat="46.36604" lon="2.38242">
        <ele>405</ele>
        <time>2018-08-23T09:11:28Z</time>
      </trkpt>
      <trkpt lat="46.36603" lon="2.38229">
        <ele>405</ele>
        <time>2018-08-23T09:11:37Z</time>
      </trkpt>
      <trkpt lat="46.36602" lon="2.38216">
        <ele>405</ele>
        <time>2018-08-23T09:11:47Z</time>
      </trkpt>
      <trkpt lat="46.366" lon="2.38202">
        <ele>405</ele>
        <time>2018-08-23T09:11:55Z</time>
      </trkpt>
      <trkpt lat="46.36599" lon="2.38189">
        <ele>405</ele>
        <time>2018-08-23T09:12:03Z</time>
      </trkpt>
      <trkpt lat="46.366" lon="2.38175">
        <ele>405</ele>
        <time>2018-08-23T09:12:09Z</time>
      </trkpt>
      <trkpt lat="46.36596" lon="2.38161">
        <ele>406</ele>
        <time>2018-08-23T09:12:18Z</time>
      </trkpt>
      <trkpt lat="46.36594" lon="2.38149">
        <ele>406</ele>
        <time>2018-08-23T09:12:26Z</time>
      </trkpt>
      <trkpt lat="46.36591" lon="2.38136">
        <ele>407</ele>
        <time>2018-08-23T09:12:35Z</time>
      </trkpt>
      <trkpt lat="46.36589" lon="2.38122">
        <ele>407</ele>
        <time>2018-08-23T09:12:44Z</time>
      </trkpt>
      <trkpt lat="46.36592" lon="2.38109">
        <ele>408</ele>
        <time>2018-08-23T09:12:59Z</time>
      </trkpt>
      <trkpt lat="46.36589" lon="2.38096">
        <ele>408</ele>
        <time>2018-08-23T09:13:05Z</time>
      </trkpt>
      <trkpt lat="46.3659" lon="2.38082">
        <ele>409</ele>
        <time>2018-08-23T09:13:10Z</time>
      </trkpt>
      <trkpt lat="46.36592" lon="2.38069">
        <ele>409</ele>
        <time>2018-08-23T09:13:21Z</time>
      </trkpt>
      <trkpt lat="46.36589" lon="2.38055">
        <ele>409</ele>
        <time>2018-08-23T09:13:27Z</time>
      </trkpt>
      <trkpt lat="46.36589" lon="2.38042">
        <ele>410</ele>
        <time>2018-08-23T09:13:35Z</time>
      </trkpt>
      <trkpt lat="46.36587" lon="2.38029">
        <ele>410</ele>
        <time>2018-08-23T09:13:43Z</time>
      </trkpt>
      <trkpt lat="46.36585" lon="2.38016">
        <ele>410</ele>
        <time>2018-08-23T09:13:52Z</time>
      </trkpt>
      <trkpt lat="46.36585" lon="2.38002">
        <ele>409</ele>
        <time>2018-08-23T09:14:00Z</time>
      </trkpt>
      <trkpt lat="46.36585" lon="2.37988">
        <ele>410</ele>
        <time>2018-08-23T09:14:06Z</time>
      </trkpt>
      <trkpt lat="46.36585" lon="2.37975">
        <ele>411</ele>
        <time>2018-08-23T09:14:17Z</time>
      </trkpt>
      <trkpt lat="46.36582" lon="2.3796">
        <ele>409</ele>
        <time>2018-08-23T09:14:24Z</time>
      </trkpt>
      <trkpt lat="46.36579" lon="2.37947">
        <ele>409</ele>
        <time>2018-08-23T09:14:35Z</time>
      </trkpt>
      <trkpt lat="46.36579" lon="2.37933">
        <ele>410</ele>
        <time>2018-08-23T09:14:42Z</time>
      </trkpt>
      <trkpt lat="46.36576" lon="2.3792">
        <ele>410</ele>
        <time>2018-08-23T09:14:50Z</time>
      </trkpt>
      <trkpt lat="46.36575" lon="2.37907">
        <ele>410</ele>
        <time>2018-08-23T09:15:00Z</time>
      </trkpt>
      <trkpt lat="46.36572" lon="2.37894">
        <ele>409</ele>
        <time>2018-08-23T09:15:06Z</time>
      </trkpt>
      <trkpt lat="46.36571" lon="2.37881">
        <ele>409</ele>
        <time>2018-08-23T09:15:16Z</time>
      </trkpt>
      <trkpt lat="46.36568" lon="2.37866">
        <ele>409</ele>
        <time>2018-08-23T09:15:24Z</time>
      </trkpt>
      <trkpt lat="46.36568" lon="2.37852">
        <ele>409</ele>
        <time>2018-08-23T09:15:35Z</time>
      </trkpt>
      <trkpt lat="46.36563" lon="2.3784">
        <ele>409</ele>
        <time>2018-08-23T09:15:41Z</time>
      </trkpt>
      <trkpt lat="46.36567" lon="2.37827">
        <ele>410</ele>
        <time>2018-08-23T09:15:49Z</time>
      </trkpt>
      <trkpt lat="46.36576" lon="2.37821">
        <ele>410</ele>
        <time>2018-08-23T09:16:32Z</time>
      </trkpt>
      <trkpt lat="46.36585" lon="2.37818">
        <ele>412</ele>
        <time>2018-08-23T09:16:42Z</time>
      </trkpt>
      <trkpt lat="46.36594" lon="2.37815">
        <ele>412</ele>
        <time>2018-08-23T09:16:52Z</time>
      </trkpt>
      <trkpt lat="46.36603" lon="2.37812">
        <ele>413</ele>
        <time>2018-08-23T09:17:01Z</time>
      </trkpt>
      <trkpt lat="46.36612" lon="2.37809">
        <ele>413</ele>
        <time>2018-08-23T09:17:12Z</time>
      </trkpt>
      <trkpt lat="46.36622" lon="2.37806">
        <ele>413</ele>
        <time>2018-08-23T09:17:18Z</time>
      </trkpt>
      <trkpt lat="46.3663" lon="2.37802">
        <ele>414</ele>
        <time>2018-08-23T09:17:27Z</time>
      </trkpt>
      <trkpt lat="46.36639" lon="2.37795">
        <ele>414</ele>
        <time>2018-08-23T09:17:39Z</time>
      </trkpt>
      <trkpt lat="46.36648" lon="2.37793">
        <ele>414</ele>
        <time>2018-08-23T09:17:47Z</time>
      </trkpt>
      <trkpt lat="46.36657" lon="2.37797">
        <ele>414</ele>
        <time>2018-08-23T09:17:53Z</time>
      </trkpt>
      <trkpt lat="46.36667" lon="2.378">
        <ele>418</ele>
        <time>2018-08-23T09:18:02Z</time>
      </trkpt>
      <trkpt lat="46.36676" lon="2.378">
        <ele>418</ele>
        <time>2018-08-23T09:18:13Z</time>
      </trkpt>
      <trkpt lat="46.36686" lon="2.37802">
        <ele>418</ele>
        <time>2018-08-23T09:18:22Z</time>
      </trkpt>
      <trkpt lat="46.36694" lon="2.37806">
        <ele>418</ele>
        <time>2018-08-23T09:18:28Z</time>
      </trkpt>
      <trkpt lat="46.36703" lon="2.37811">
        <ele>419</ele>
        <time>2018-08-23T09:18:36Z</time>
      </trkpt>
      <trkpt lat="46.36712" lon="2.37816">
        <ele>419</ele>
        <time>2018-08-23T09:18:44Z</time>
      </trkpt>
      <trkpt lat="46.36721" lon="2.37821">
        <ele>420</ele>
        <time>2018-08-23T09:18:53Z</time>
      </trkpt>
      <trkpt lat="46.3673" lon="2.37826">
        <ele>421</ele>
        <time>2018-08-23T09:18:59Z</time>
      </trkpt>
      <trkpt lat="46.36737" lon="2.37834">
        <ele>421</ele>
        <time>2018-08-23T09:19:07Z</time>
      </trkpt>
      <trkpt lat="46.36744" lon="2.37843">
        <ele>421</ele>
        <time>2018-08-23T09:19:20Z</time>
      </trkpt>
      <trkpt lat="46.36749" lon="2.37855">
        <ele>421</ele>
        <time>2018-08-23T09:19:31Z</time>
      </trkpt>
      <trkpt lat="46.36756" lon="2.37865">
        <ele>425</ele>
        <time>2018-08-23T09:19:40Z</time>
      </trkpt>
      <trkpt lat="46.36766" lon="2.37869">
        <ele>425</ele>
        <time>2018-08-23T09:19:46Z</time>
      </trkpt>
      <trkpt lat="46.36774" lon="2.37876">
        <ele>425</ele>
        <time>2018-08-23T09:19:57Z</time>
      </trkpt>
      <trkpt lat="46.3678" lon="2.37885">
        <ele>426</ele>
        <time>2018-08-23T09:20:06Z</time>
      </trkpt>
      <trkpt lat="46.36789" lon="2.37892">
        <ele>426</ele>
        <time>2018-08-23T09:20:17Z</time>
      </trkpt>
      <trkpt lat="46.36797" lon="2.37899">
        <ele>426</ele>
        <time>2018-08-23T09:20:27Z</time>
      </trkpt>
      <trkpt lat="46.36805" lon="2.37905">
        <ele>427</ele>
        <time>2018-08-23T09:20:35Z</time>
      </trkpt>
      <trkpt lat="46.36815" lon="2.37908">
        <ele>427</ele>
        <time>2018-08-23T09:20:45Z</time>
      </trkpt>
      <trkpt lat="46.36824" lon="2.37906">
        <ele>428</ele>
        <time>2018-08-23T09:20:56Z</time>
      </trkpt>
      <trkpt lat="46.36833" lon="2.37908">
        <ele>428</ele>
        <time>2018-08-23T09:21:05Z</time>
      </trkpt>
      <trkpt lat="46.36842" lon="2.37908">
        <ele>432</ele>
        <time>2018-08-23T09:21:14Z</time>
      </trkpt>
      <trkpt lat="46.36851" lon="2.37907">
        <ele>433</ele>
        <time>2018-08-23T09:21:23Z</time>
      </trkpt>
      <trkpt lat="46.3686" lon="2.37904">
        <ele>434</ele>
        <time>2018-08-23T09:21:31Z</time>
      </trkpt>
      <trkpt lat="46.3686" lon="2.37904">
        <ele>434</ele>
        <time>2018-08-23T09:21:31Z</time>
      </trkpt>
      <trkpt lat="46.36869" lon="2.37901">
        <ele>434</ele>
        <time>2018-08-23T09:21:41Z</time>
      </trkpt>
      <trkpt lat="46.36879" lon="2.37899">
        <ele>435</ele>
        <time>2018-08-23T09:21:49Z</time>
      </trkpt>
      <trkpt lat="46.36888" lon="2.37894">
        <ele>436</ele>
        <time>2018-08-23T09:21:57Z</time>
      </trkpt>
      <trkpt lat="46.36894" lon="2.37884">
        <ele>436</ele>
        <time>2018-08-23T09:22:02Z</time>
      </trkpt>
      <trkpt lat="46.36904" lon="2.37884">
        <ele>436</ele>
        <time>2018-08-23T09:22:08Z</time>
      </trkpt>
      <trkpt lat="46.36913" lon="2.37883">
        <ele>437</ele>
        <time>2018-08-23T09:22:20Z</time>
      </trkpt>
      <trkpt lat="46.36922" lon="2.3788">
        <ele>439</ele>
        <time>2018-08-23T09:22:32Z</time>
      </trkpt>
      <trkpt lat="46.3693" lon="2.37884">
        <ele>439</ele>
        <time>2018-08-23T09:22:44Z</time>
      </trkpt>
      <trkpt lat="46.36936" lon="2.37894">
        <ele>438</ele>
        <time>2018-08-23T09:22:53Z</time>
      </trkpt>
      <trkpt lat="46.36939" lon="2.37908">
        <ele>438</ele>
        <time>2018-08-23T09:23:02Z</time>
      </trkpt>
      <trkpt lat="46.36942" lon="2.37922">
        <ele>434</ele>
        <time>2018-08-23T09:23:09Z</time>
      </trkpt>
      <trkpt lat="46.36945" lon="2.37937">
        <ele>434</ele>
        <time>2018-08-23T09:23:16Z</time>
      </trkpt>
      <trkpt lat="46.36948" lon="2.37951">
        <ele>433</ele>
        <time>2018-08-23T09:23:27Z</time>
      </trkpt>
      <trkpt lat="46.36945" lon="2.37964">
        <ele>432</ele>
        <time>2018-08-23T09:23:34Z</time>
      </trkpt>
      <trkpt lat="46.3695" lon="2.37975">
        <ele>432</ele>
        <time>2018-08-23T09:23:43Z</time>
      </trkpt>
      <trkpt lat="46.36959" lon="2.37982">
        <ele>431</ele>
        <time>2018-08-23T09:24:01Z</time>
      </trkpt>
      <trkpt lat="46.36969" lon="2.37985">
        <ele>431</ele>
        <time>2018-08-23T09:24:16Z</time>
      </trkpt>
      <trkpt lat="46.36977" lon="2.3799">
        <ele>430</ele>
        <time>2018-08-23T09:24:27Z</time>
      </trkpt>
      <trkpt lat="46.36982" lon="2.38002">
        <ele>426</ele>
        <time>2018-08-23T09:24:40Z</time>
      </trkpt>
      <trkpt lat="46.36982" lon="2.38016">
        <ele>425</ele>
        <time>2018-08-23T09:24:51Z</time>
      </trkpt>
      <trkpt lat="46.36977" lon="2.38028">
        <ele>424</ele>
        <time>2018-08-23T09:24:58Z</time>
      </trkpt>
      <trkpt lat="46.36969" lon="2.38035">
        <ele>424</ele>
        <time>2018-08-23T09:25:10Z</time>
      </trkpt>
      <trkpt lat="46.36963" lon="2.38045">
        <ele>423</ele>
        <time>2018-08-23T09:25:21Z</time>
      </trkpt>
      <trkpt lat="46.36958" lon="2.38056">
        <ele>423</ele>
        <time>2018-08-23T09:25:29Z</time>
      </trkpt>
      <trkpt lat="46.36953" lon="2.38068">
        <ele>422</ele>
        <time>2018-08-23T09:25:39Z</time>
      </trkpt>
      <trkpt lat="46.36946" lon="2.38076">
        <ele>422</ele>
        <time>2018-08-23T09:25:49Z</time>
      </trkpt>
      <trkpt lat="46.3694" lon="2.38087">
        <ele>417</ele>
        <time>2018-08-23T09:25:58Z</time>
      </trkpt>
      <trkpt lat="46.36934" lon="2.38098">
        <ele>417</ele>
        <time>2018-08-23T09:26:09Z</time>
      </trkpt>
      <trkpt lat="46.36925" lon="2.38104">
        <ele>416</ele>
        <time>2018-08-23T09:26:17Z</time>
      </trkpt>
      <trkpt lat="46.36919" lon="2.38114">
        <ele>416</ele>
        <time>2018-08-23T09:26:25Z</time>
      </trkpt>
      <trkpt lat="46.36913" lon="2.38125">
        <ele>414</ele>
        <time>2018-08-23T09:26:34Z</time>
      </trkpt>
      <trkpt lat="46.36907" lon="2.38136">
        <ele>413</ele>
        <time>2018-08-23T09:26:44Z</time>
      </trkpt>
      <trkpt lat="46.369" lon="2.38146">
        <ele>413</ele>
        <time>2018-08-23T09:26:51Z</time>
      </trkpt>
      <trkpt lat="46.36895" lon="2.38157">
        <ele>412</ele>
        <time>2018-08-23T09:27:01Z</time>
      </trkpt>
      <trkpt lat="46.3689" lon="2.38168">
        <ele>410</ele>
        <time>2018-08-23T09:27:10Z</time>
      </trkpt>
      <trkpt lat="46.36886" lon="2.3818">
        <ele>410</ele>
        <time>2018-08-23T09:27:18Z</time>
      </trkpt>
      <trkpt lat="46.36879" lon="2.3819">
        <ele>410</ele>
        <time>2018-08-23T09:27:27Z</time>
      </trkpt>
      <trkpt lat="46.36873" lon="2.38201">
        <ele>409</ele>
        <time>2018-08-23T09:27:37Z</time>
      </trkpt>
      <trkpt lat="46.36866" lon="2.38213">
        <ele>409</ele>
        <time>2018-08-23T09:27:46Z</time>
      </trkpt>
      <trkpt lat="46.36859" lon="2.38222">
        <ele>409</ele>
        <time>2018-08-23T09:27:55Z</time>
      </trkpt>
      <trkpt lat="46.36867" lon="2.38215">
        <ele>409</ele>
        <time>2018-08-23T09:32:10Z</time>
      </trkpt>
      <trkpt lat="46.36873" lon="2.38205">
        <ele>409</ele>
        <time>2018-08-23T09:32:21Z</time>
      </trkpt>
      <trkpt lat="46.36881" lon="2.38197">
        <ele>410</ele>
        <time>2018-08-23T09:32:30Z</time>
      </trkpt>
      <trkpt lat="46.36885" lon="2.38186">
        <ele>410</ele>
        <time>2018-08-23T09:32:38Z</time>
      </trkpt>
      <trkpt lat="46.36886" lon="2.38171">
        <ele>410</ele>
        <time>2018-08-23T09:32:50Z</time>
      </trkpt>
      <trkpt lat="46.36892" lon="2.38162">
        <ele>412</ele>
        <time>2018-08-23T09:33:00Z</time>
      </trkpt>
      <trkpt lat="46.36896" lon="2.3815">
        <ele>413</ele>
        <time>2018-08-23T09:33:08Z</time>
      </trkpt>
      <trkpt lat="46.36901" lon="2.38139">
        <ele>413</ele>
        <time>2018-08-23T09:33:19Z</time>
      </trkpt>
      <trkpt lat="46.36908" lon="2.3813">
        <ele>413</ele>
        <time>2018-08-23T09:33:31Z</time>
      </trkpt>
      <trkpt lat="46.36915" lon="2.3812">
        <ele>414</ele>
        <time>2018-08-23T09:33:38Z</time>
      </trkpt>
      <trkpt lat="46.3692" lon="2.38107">
        <ele>416</ele>
        <time>2018-08-23T09:33:51Z</time>
      </trkpt>
      <trkpt lat="46.36926" lon="2.38097">
        <ele>417</ele>
        <time>2018-08-23T09:34:02Z</time>
      </trkpt>
      <trkpt lat="46.36934" lon="2.3809">
        <ele>417</ele>
        <time>2018-08-23T09:34:11Z</time>
      </trkpt>
      <trkpt lat="46.3694" lon="2.3808">
        <ele>421</ele>
        <time>2018-08-23T09:34:24Z</time>
      </trkpt>
      <trkpt lat="46.36947" lon="2.38071">
        <ele>422</ele>
        <time>2018-08-23T09:34:37Z</time>
      </trkpt>
      <trkpt lat="46.36956" lon="2.38065">
        <ele>422</ele>
        <time>2018-08-23T09:34:48Z</time>
      </trkpt>
      <trkpt lat="46.36963" lon="2.38057">
        <ele>423</ele>
        <time>2018-08-23T09:34:59Z</time>
      </trkpt>
      <trkpt lat="46.36969" lon="2.38047">
        <ele>423</ele>
        <time>2018-08-23T09:35:11Z</time>
      </trkpt>
      <trkpt lat="46.36977" lon="2.38041">
        <ele>423</ele>
        <time>2018-08-23T09:35:20Z</time>
      </trkpt>
      <trkpt lat="46.36983" lon="2.3803">
        <ele>424</ele>
        <time>2018-08-23T09:35:29Z</time>
      </trkpt>
      <trkpt lat="46.36985" lon="2.38016">
        <ele>425</ele>
        <time>2018-08-23T09:35:41Z</time>
      </trkpt>
      <trkpt lat="46.36985" lon="2.38002">
        <ele>426</ele>
        <time>2018-08-23T09:35:51Z</time>
      </trkpt>
      <trkpt lat="46.36982" lon="2.3799">
        <ele>430</ele>
        <time>2018-08-23T09:36:08Z</time>
      </trkpt>
      <trkpt lat="46.36973" lon="2.37984">
        <ele>431</ele>
        <time>2018-08-23T09:36:18Z</time>
      </trkpt>
      <trkpt lat="46.36963" lon="2.37986">
        <ele>431</ele>
        <time>2018-08-23T09:36:34Z</time>
      </trkpt>
      <trkpt lat="46.36954" lon="2.37981">
        <ele>432</ele>
        <time>2018-08-23T09:36:49Z</time>
      </trkpt>
      <trkpt lat="46.36949" lon="2.37969">
        <ele>432</ele>
        <time>2018-08-23T09:36:59Z</time>
      </trkpt>
      <trkpt lat="46.36945" lon="2.37957">
        <ele>433</ele>
        <time>2018-08-23T09:37:09Z</time>
      </trkpt>
      <trkpt lat="46.36945" lon="2.37943">
        <ele>433</ele>
        <time>2018-08-23T09:37:28Z</time>
      </trkpt>
      <trkpt lat="46.36945" lon="2.37929">
        <ele>434</ele>
        <time>2018-08-23T09:37:40Z</time>
      </trkpt>
      <trkpt lat="46.36942" lon="2.37917">
        <ele>434</ele>
        <time>2018-08-23T09:37:50Z</time>
      </trkpt>
      <trkpt lat="46.36942" lon="2.37904">
        <ele>438</ele>
        <time>2018-08-23T09:38:01Z</time>
      </trkpt>
      <trkpt lat="46.36935" lon="2.37894">
        <ele>438</ele>
        <time>2018-08-23T09:38:15Z</time>
      </trkpt>
      <trkpt lat="46.3693" lon="2.37882">
        <ele>439</ele>
        <time>2018-08-23T09:38:28Z</time>
      </trkpt>
      <trkpt lat="46.36926" lon="2.3787">
        <ele>439</ele>
        <time>2018-08-23T09:38:44Z</time>
      </trkpt>
      <trkpt lat="46.36925" lon="2.37855">
        <ele>440</ele>
        <time>2018-08-23T09:39:03Z</time>
      </trkpt>
      <trkpt lat="46.36922" lon="2.37841">
        <ele>441</ele>
        <time>2018-08-23T09:39:12Z</time>
      </trkpt>
      <trkpt lat="46.36921" lon="2.37828">
        <ele>442</ele>
        <time>2018-08-23T09:39:23Z</time>
      </trkpt>
      <trkpt lat="46.36921" lon="2.37814">
        <ele>442</ele>
        <time>2018-08-23T09:39:49Z</time>
      </trkpt>
      <trkpt lat="46.36925" lon="2.37802">
        <ele>441</ele>
        <time>2018-08-23T09:39:57Z</time>
      </trkpt>
      <trkpt lat="46.36925" lon="2.37787">
        <ele>441</ele>
        <time>2018-08-23T09:40:07Z</time>
      </trkpt>
      <trkpt lat="46.36922" lon="2.37775">
        <ele>441</ele>
        <time>2018-08-23T09:40:15Z</time>
      </trkpt>
      <trkpt lat="46.3692" lon="2.37762">
        <ele>441</ele>
        <time>2018-08-23T09:40:23Z</time>
      </trkpt>
      <trkpt lat="46.36913" lon="2.37749">
        <ele>440</ele>
        <time>2018-08-23T09:40:29Z</time>
      </trkpt>
      <trkpt lat="46.3691" lon="2.37737">
        <ele>439</ele>
        <time>2018-08-23T09:40:38Z</time>
      </trkpt>
      <trkpt lat="46.3691" lon="2.37724">
        <ele>439</ele>
        <time>2018-08-23T09:40:47Z</time>
      </trkpt>
      <trkpt lat="46.36906" lon="2.37711">
        <ele>438</ele>
        <time>2018-08-23T09:40:55Z</time>
      </trkpt>
      <trkpt lat="46.36903" lon="2.37698">
        <ele>438</ele>
        <time>2018-08-23T09:41:05Z</time>
      </trkpt>
      <trkpt lat="46.369" lon="2.37684">
        <ele>438</ele>
        <time>2018-08-23T09:41:21Z</time>
      </trkpt>
      <trkpt lat="46.36898" lon="2.3767">
        <ele>438</ele>
        <time>2018-08-23T09:41:29Z</time>
      </trkpt>
      <trkpt lat="46.36897" lon="2.37655">
        <ele>438</ele>
        <time>2018-08-23T09:41:37Z</time>
      </trkpt>
      <trkpt lat="46.36899" lon="2.37642">
        <ele>438</ele>
        <time>2018-08-23T09:41:44Z</time>
      </trkpt>
      <trkpt lat="46.36898" lon="2.37629">
        <ele>437</ele>
        <time>2018-08-23T09:41:51Z</time>
      </trkpt>
      <trkpt lat="46.369" lon="2.37616">
        <ele>437</ele>
        <time>2018-08-23T09:42:00Z</time>
      </trkpt>
      <trkpt lat="46.36896" lon="2.37603">
        <ele>437</ele>
        <time>2018-08-23T09:42:07Z</time>
      </trkpt>
      <trkpt lat="46.36896" lon="2.37603">
        <ele>437</ele>
        <time>2018-08-23T09:42:07Z</time>
      </trkpt>
      <trkpt lat="46.36894" lon="2.37589">
        <ele>437</ele>
        <time>2018-08-23T09:42:16Z</time>
      </trkpt>
      <trkpt lat="46.36891" lon="2.37576">
        <ele>437</ele>
        <time>2018-08-23T09:42:25Z</time>
      </trkpt>
      <trkpt lat="46.3689" lon="2.37562">
        <ele>436</ele>
        <time>2018-08-23T09:42:34Z</time>
      </trkpt>
      <trkpt lat="46.36888" lon="2.37548">
        <ele>436</ele>
        <time>2018-08-23T09:42:43Z</time>
      </trkpt>
      <trkpt lat="46.36886" lon="2.37535">
        <ele>436</ele>
        <time>2018-08-23T09:42:52Z</time>
      </trkpt>
      <trkpt lat="46.36883" lon="2.37521">
        <ele>436</ele>
        <time>2018-08-23T09:43:01Z</time>
      </trkpt>
      <trkpt lat="46.36879" lon="2.37509">
        <ele>436</ele>
        <time>2018-08-23T09:43:08Z</time>
      </trkpt>
      <trkpt lat="46.36877" lon="2.37494">
        <ele>435</ele>
        <time>2018-08-23T09:43:17Z</time>
      </trkpt>
      <trkpt lat="46.36872" lon="2.37481">
        <ele>435</ele>
        <time>2018-08-23T09:43:25Z</time>
      </trkpt>
      <trkpt lat="46.3687" lon="2.37468">
        <ele>435</ele>
        <time>2018-08-23T09:43:32Z</time>
      </trkpt>
      <trkpt lat="46.36867" lon="2.37455">
        <ele>435</ele>
        <time>2018-08-23T09:43:43Z</time>
      </trkpt>
      <trkpt lat="46.36866" lon="2.37441">
        <ele>435</ele>
        <time>2018-08-23T09:43:53Z</time>
      </trkpt>
      <trkpt lat="46.36865" lon="2.37427">
        <ele>435</ele>
        <time>2018-08-23T09:44:02Z</time>
      </trkpt>
      <trkpt lat="46.36862" lon="2.37415">
        <ele>437</ele>
        <time>2018-08-23T09:44:11Z</time>
      </trkpt>
      <trkpt lat="46.36861" lon="2.374">
        <ele>437</ele>
        <time>2018-08-23T09:44:20Z</time>
      </trkpt>
      <trkpt lat="46.36858" lon="2.37387">
        <ele>437</ele>
        <time>2018-08-23T09:44:29Z</time>
      </trkpt>
      <trkpt lat="46.36858" lon="2.37374">
        <ele>438</ele>
        <time>2018-08-23T09:44:38Z</time>
      </trkpt>
      <trkpt lat="46.36853" lon="2.3736">
        <ele>438</ele>
        <time>2018-08-23T09:44:44Z</time>
      </trkpt>
      <trkpt lat="46.36852" lon="2.37346">
        <ele>438</ele>
        <time>2018-08-23T09:44:54Z</time>
      </trkpt>
      <trkpt lat="46.36848" lon="2.37333">
        <ele>440</ele>
        <time>2018-08-23T09:45:03Z</time>
      </trkpt>
      <trkpt lat="46.36845" lon="2.3732">
        <ele>441</ele>
        <time>2018-08-23T09:45:13Z</time>
      </trkpt>
      <trkpt lat="46.3684" lon="2.37308">
        <ele>441</ele>
        <time>2018-08-23T09:45:23Z</time>
      </trkpt>
      <trkpt lat="46.36841" lon="2.37294">
        <ele>442</ele>
        <time>2018-08-23T09:45:35Z</time>
      </trkpt>
      <trkpt lat="46.36838" lon="2.3728">
        <ele>443</ele>
        <time>2018-08-23T09:45:44Z</time>
      </trkpt>
      <trkpt lat="46.36836" lon="2.37266">
        <ele>443</ele>
        <time>2018-08-23T09:45:51Z</time>
      </trkpt>
      <trkpt lat="46.36833" lon="2.37253">
        <ele>443</ele>
        <time>2018-08-23T09:46:01Z</time>
      </trkpt>
      <trkpt lat="46.36832" lon="2.37239">
        <ele>442</ele>
        <time>2018-08-23T09:46:11Z</time>
      </trkpt>
      <trkpt lat="46.3683" lon="2.37225">
        <ele>442</ele>
        <time>2018-08-23T09:46:20Z</time>
      </trkpt>
      <trkpt lat="46.36827" lon="2.37213">
        <ele>441</ele>
        <time>2018-08-23T09:46:28Z</time>
      </trkpt>
      <trkpt lat="46.36824" lon="2.37199">
        <ele>442</ele>
        <time>2018-08-23T09:46:36Z</time>
      </trkpt>
      <trkpt lat="46.36826" lon="2.37185">
        <ele>443</ele>
        <time>2018-08-23T09:46:56Z</time>
      </trkpt>
      <trkpt lat="46.36823" lon="2.37172">
        <ele>444</ele>
        <time>2018-08-23T09:47:04Z</time>
      </trkpt>
      <trkpt lat="46.36827" lon="2.3716">
        <ele>445</ele>
        <time>2018-08-23T09:47:13Z</time>
      </trkpt>
      <trkpt lat="46.36828" lon="2.37146">
        <ele>444</ele>
        <time>2018-08-23T09:47:22Z</time>
      </trkpt>
      <trkpt lat="46.36829" lon="2.37131">
        <ele>443</ele>
        <time>2018-08-23T09:47:31Z</time>
      </trkpt>
      <trkpt lat="46.3683" lon="2.37118">
        <ele>443</ele>
        <time>2018-08-23T09:47:40Z</time>
      </trkpt>
      <trkpt lat="46.36834" lon="2.37106">
        <ele>446</ele>
        <time>2018-08-23T09:47:47Z</time>
      </trkpt>
      <trkpt lat="46.36841" lon="2.37096">
        <ele>446</ele>
        <time>2018-08-23T09:47:56Z</time>
      </trkpt>
      <trkpt lat="46.36844" lon="2.37083">
        <ele>446</ele>
        <time>2018-08-23T09:48:03Z</time>
      </trkpt>
      <trkpt lat="46.36849" lon="2.37073">
        <ele>446</ele>
        <time>2018-08-23T09:48:11Z</time>
      </trkpt>
      <trkpt lat="46.36854" lon="2.37061">
        <ele>446</ele>
        <time>2018-08-23T09:48:19Z</time>
      </trkpt>
      <trkpt lat="46.36857" lon="2.37048">
        <ele>446</ele>
        <time>2018-08-23T09:48:27Z</time>
      </trkpt>
      <trkpt lat="46.3686" lon="2.37034">
        <ele>446</ele>
        <time>2018-08-23T09:48:37Z</time>
      </trkpt>
      <trkpt lat="46.36862" lon="2.37021">
        <ele>446</ele>
        <time>2018-08-23T09:48:46Z</time>
      </trkpt>
      <trkpt lat="46.36865" lon="2.37008">
        <ele>446</ele>
        <time>2018-08-23T09:48:55Z</time>
      </trkpt>
      <trkpt lat="46.36867" lon="2.36995">
        <ele>447</ele>
        <time>2018-08-23T09:49:04Z</time>
      </trkpt>
      <trkpt lat="46.36868" lon="2.36982">
        <ele>447</ele>
        <time>2018-08-23T09:49:12Z</time>
      </trkpt>
      <trkpt lat="46.3687" lon="2.36969">
        <ele>447</ele>
        <time>2018-08-23T09:49:22Z</time>
      </trkpt>
      <trkpt lat="46.36874" lon="2.36957">
        <ele>447</ele>
        <time>2018-08-23T09:49:32Z</time>
      </trkpt>
      <trkpt lat="46.36877" lon="2.36944">
        <ele>447</ele>
        <time>2018-08-23T09:49:41Z</time>
      </trkpt>
      <trkpt lat="46.36879" lon="2.3693">
        <ele>447</ele>
        <time>2018-08-23T09:49:51Z</time>
      </trkpt>
      <trkpt lat="46.36878" lon="2.36916">
        <ele>447</ele>
        <time>2018-08-23T09:49:58Z</time>
      </trkpt>
      <trkpt lat="46.36879" lon="2.36902">
        <ele>447</ele>
        <time>2018-08-23T09:50:05Z</time>
      </trkpt>
      <trkpt lat="46.36882" lon="2.36888">
        <ele>447</ele>
        <time>2018-08-23T09:50:14Z</time>
      </trkpt>
      <trkpt lat="46.36887" lon="2.36877">
        <ele>447</ele>
        <time>2018-08-23T09:50:24Z</time>
      </trkpt>
      <trkpt lat="46.36891" lon="2.36864">
        <ele>448</ele>
        <time>2018-08-23T09:50:33Z</time>
      </trkpt>
      <trkpt lat="46.36892" lon="2.36851">
        <ele>448</ele>
        <time>2018-08-23T09:50:41Z</time>
      </trkpt>
      <trkpt lat="46.36893" lon="2.36837">
        <ele>448</ele>
        <time>2018-08-23T09:50:53Z</time>
      </trkpt>
      <trkpt lat="46.36895" lon="2.36824">
        <ele>448</ele>
        <time>2018-08-23T09:51:03Z</time>
      </trkpt>
      <trkpt lat="46.36896" lon="2.36809">
        <ele>448</ele>
        <time>2018-08-23T09:51:14Z</time>
      </trkpt>
      <trkpt lat="46.36895" lon="2.36796">
        <ele>448</ele>
        <time>2018-08-23T09:51:23Z</time>
      </trkpt>
      <trkpt lat="46.36892" lon="2.36783">
        <ele>448</ele>
        <time>2018-08-23T09:51:30Z</time>
      </trkpt>
      <trkpt lat="46.36887" lon="2.36769">
        <ele>448</ele>
        <time>2018-08-23T09:51:51Z</time>
      </trkpt>
      <trkpt lat="46.36888" lon="2.36754">
        <ele>448</ele>
        <time>2018-08-23T09:52:02Z</time>
      </trkpt>
      <trkpt lat="46.36891" lon="2.36742">
        <ele>448</ele>
        <time>2018-08-23T09:52:10Z</time>
      </trkpt>
      <trkpt lat="46.36891" lon="2.36728">
        <ele>448</ele>
        <time>2018-08-23T09:52:19Z</time>
      </trkpt>
      <trkpt lat="46.36891" lon="2.36714">
        <ele>448</ele>
        <time>2018-08-23T09:52:27Z</time>
      </trkpt>
      <trkpt lat="46.36891" lon="2.367">
        <ele>448</ele>
        <time>2018-08-23T09:52:37Z</time>
      </trkpt>
      <trkpt lat="46.36894" lon="2.36687">
        <ele>448</ele>
        <time>2018-08-23T09:52:44Z</time>
      </trkpt>
      <trkpt lat="46.36899" lon="2.36675">
        <ele>448</ele>
        <time>2018-08-23T09:52:52Z</time>
      </trkpt>
      <trkpt lat="46.36901" lon="2.36662">
        <ele>447</ele>
        <time>2018-08-23T09:53:01Z</time>
      </trkpt>
      <trkpt lat="46.36905" lon="2.36649">
        <ele>447</ele>
        <time>2018-08-23T09:53:12Z</time>
      </trkpt>
      <trkpt lat="46.36908" lon="2.36636">
        <ele>447</ele>
        <time>2018-08-23T09:53:19Z</time>
      </trkpt>
      <trkpt lat="46.36914" lon="2.36626">
        <ele>446</ele>
        <time>2018-08-23T09:53:28Z</time>
      </trkpt>
      <trkpt lat="46.36921" lon="2.36615">
        <ele>445</ele>
        <time>2018-08-23T09:53:36Z</time>
      </trkpt>
      <trkpt lat="46.36925" lon="2.36602">
        <ele>445</ele>
        <time>2018-08-23T09:53:45Z</time>
      </trkpt>
      <trkpt lat="46.3693" lon="2.3659">
        <ele>445</ele>
        <time>2018-08-23T09:53:55Z</time>
      </trkpt>
      <trkpt lat="46.36938" lon="2.36581">
        <ele>444</ele>
        <time>2018-08-23T09:54:04Z</time>
      </trkpt>
      <trkpt lat="46.36944" lon="2.3657">
        <ele>444</ele>
        <time>2018-08-23T09:54:13Z</time>
      </trkpt>
      <trkpt lat="46.36948" lon="2.36559">
        <ele>444</ele>
        <time>2018-08-23T09:54:22Z</time>
      </trkpt>
      <trkpt lat="46.36955" lon="2.36547">
        <ele>444</ele>
        <time>2018-08-23T09:54:32Z</time>
      </trkpt>
      <trkpt lat="46.36962" lon="2.36537">
        <ele>444</ele>
        <time>2018-08-23T09:54:42Z</time>
      </trkpt>
      <trkpt lat="46.36968" lon="2.36527">
        <ele>444</ele>
        <time>2018-08-23T09:54:50Z</time>
      </trkpt>
      <trkpt lat="46.36975" lon="2.36519">
        <ele>444</ele>
        <time>2018-08-23T09:55:00Z</time>
      </trkpt>
      <trkpt lat="46.36984" lon="2.36514">
        <ele>444</ele>
        <time>2018-08-23T09:55:09Z</time>
      </trkpt>
      <trkpt lat="46.36992" lon="2.36508">
        <ele>444</ele>
        <time>2018-08-23T09:55:17Z</time>
      </trkpt>
      <trkpt lat="46.37001" lon="2.365">
        <ele>444</ele>
        <time>2018-08-23T09:55:29Z</time>
      </trkpt>
      <trkpt lat="46.3701" lon="2.36492">
        <ele>443</ele>
        <time>2018-08-23T09:55:38Z</time>
      </trkpt>
      <trkpt lat="46.37017" lon="2.36484">
        <ele>443</ele>
        <time>2018-08-23T09:55:47Z</time>
      </trkpt>
      <trkpt lat="46.37025" lon="2.36475">
        <ele>443</ele>
        <time>2018-08-23T09:55:56Z</time>
      </trkpt>
      <trkpt lat="46.37033" lon="2.36466">
        <ele>443</ele>
        <time>2018-08-23T09:56:06Z</time>
      </trkpt>
      <trkpt lat="46.3704" lon="2.36456">
        <ele>442</ele>
        <time>2018-08-23T09:56:14Z</time>
      </trkpt>
      <trkpt lat="46.37045" lon="2.36444">
        <ele>442</ele>
        <time>2018-08-23T09:56:24Z</time>
      </trkpt>
      <trkpt lat="46.37045" lon="2.36444">
        <ele>442</ele>
        <time>2018-08-23T09:56:24Z</time>
      </trkpt>
      <trkpt lat="46.3705" lon="2.36433">
        <ele>442</ele>
        <time>2018-08-23T09:56:33Z</time>
      </trkpt>
      <trkpt lat="46.37058" lon="2.36425">
        <ele>442</ele>
        <time>2018-08-23T09:56:42Z</time>
      </trkpt>
      <trkpt lat="46.37067" lon="2.3642">
        <ele>442</ele>
        <time>2018-08-23T09:56:50Z</time>
      </trkpt>
      <trkpt lat="46.37073" lon="2.3641">
        <ele>442</ele>
        <time>2018-08-23T09:57:00Z</time>
      </trkpt>
      <trkpt lat="46.37081" lon="2.36403">
        <ele>442</ele>
        <time>2018-08-23T09:57:08Z</time>
      </trkpt>
      <trkpt lat="46.37091" lon="2.36398">
        <ele>442</ele>
        <time>2018-08-23T09:57:17Z</time>
      </trkpt>
      <trkpt lat="46.37097" lon="2.36388">
        <ele>442</ele>
        <time>2018-08-23T09:57:28Z</time>
      </trkpt>
      <trkpt lat="46.37104" lon="2.3638">
        <ele>443</ele>
        <time>2018-08-23T09:57:38Z</time>
      </trkpt>
      <trkpt lat="46.37113" lon="2.36373">
        <ele>443</ele>
        <time>2018-08-23T09:57:44Z</time>
      </trkpt>
      <trkpt lat="46.37122" lon="2.36369">
        <ele>443</ele>
        <time>2018-08-23T09:57:53Z</time>
      </trkpt>
      <trkpt lat="46.3713" lon="2.36361">
        <ele>443</ele>
        <time>2018-08-23T09:58:03Z</time>
      </trkpt>
      <trkpt lat="46.37139" lon="2.36356">
        <ele>442</ele>
        <time>2018-08-23T09:58:11Z</time>
      </trkpt>
      <trkpt lat="46.37148" lon="2.36352">
        <ele>442</ele>
        <time>2018-08-23T09:58:20Z</time>
      </trkpt>
      <trkpt lat="46.37154" lon="2.36343">
        <ele>442</ele>
        <time>2018-08-23T09:58:29Z</time>
      </trkpt>
      <trkpt lat="46.37162" lon="2.36334">
        <ele>442</ele>
        <time>2018-08-23T09:58:38Z</time>
      </trkpt>
      <trkpt lat="46.37171" lon="2.36328">
        <ele>442</ele>
        <time>2018-08-23T09:58:46Z</time>
      </trkpt>
      <trkpt lat="46.3718" lon="2.36322">
        <ele>442</ele>
        <time>2018-08-23T09:58:55Z</time>
      </trkpt>
      <trkpt lat="46.37189" lon="2.36316">
        <ele>442</ele>
        <time>2018-08-23T09:59:03Z</time>
      </trkpt>
      <trkpt lat="46.37198" lon="2.36311">
        <ele>441</ele>
        <time>2018-08-23T09:59:09Z</time>
      </trkpt>
      <trkpt lat="46.37205" lon="2.36305">
        <ele>441</ele>
        <time>2018-08-23T09:59:32Z</time>
      </trkpt>
      <trkpt lat="46.37207" lon="2.36318">
        <ele>441</ele>
        <time>2018-08-23T10:00:35Z</time>
      </trkpt>
      <trkpt lat="46.37207" lon="2.36333">
        <ele>441</ele>
        <time>2018-08-23T10:00:46Z</time>
      </trkpt>
      <trkpt lat="46.37204" lon="2.36346">
        <ele>442</ele>
        <time>2018-08-23T10:00:53Z</time>
      </trkpt>
      <trkpt lat="46.37205" lon="2.3636">
        <ele>442</ele>
        <time>2018-08-23T10:01:03Z</time>
      </trkpt>
      <trkpt lat="46.37209" lon="2.36374">
        <ele>441</ele>
        <time>2018-08-23T10:01:09Z</time>
      </trkpt>
      <trkpt lat="46.37209" lon="2.36388">
        <ele>441</ele>
        <time>2018-08-23T10:01:20Z</time>
      </trkpt>
      <trkpt lat="46.37209" lon="2.36401">
        <ele>441</ele>
        <time>2018-08-23T10:01:28Z</time>
      </trkpt>
      <trkpt lat="46.37209" lon="2.36415">
        <ele>441</ele>
        <time>2018-08-23T10:01:37Z</time>
      </trkpt>
      <trkpt lat="46.37207" lon="2.36428">
        <ele>441</ele>
        <time>2018-08-23T10:01:47Z</time>
      </trkpt>
      <trkpt lat="46.37204" lon="2.36441">
        <ele>441</ele>
        <time>2018-08-23T10:01:58Z</time>
      </trkpt>
      <trkpt lat="46.37208" lon="2.36428">
        <ele>441</ele>
        <time>2018-08-23T10:04:26Z</time>
      </trkpt>
      <trkpt lat="46.37208" lon="2.36414">
        <ele>442</ele>
        <time>2018-08-23T10:04:35Z</time>
      </trkpt>
      <trkpt lat="46.37207" lon="2.364">
        <ele>442</ele>
        <time>2018-08-23T10:04:45Z</time>
      </trkpt>
      <trkpt lat="46.37207" lon="2.36385">
        <ele>442</ele>
        <time>2018-08-23T10:04:55Z</time>
      </trkpt>
      <trkpt lat="46.37208" lon="2.36371">
        <ele>442</ele>
        <time>2018-08-23T10:05:07Z</time>
      </trkpt>
      <trkpt lat="46.37207" lon="2.36358">
        <ele>442</ele>
        <time>2018-08-23T10:05:17Z</time>
      </trkpt>
      <trkpt lat="46.37209" lon="2.36345">
        <ele>441</ele>
        <time>2018-08-23T10:05:25Z</time>
      </trkpt>
      <trkpt lat="46.37208" lon="2.36332">
        <ele>441</ele>
        <time>2018-08-23T10:05:33Z</time>
      </trkpt>
      <trkpt lat="46.37209" lon="2.36319">
        <ele>441</ele>
        <time>2018-08-23T10:05:44Z</time>
      </trkpt>
      <trkpt lat="46.37208" lon="2.36305">
        <ele>441</ele>
        <time>2018-08-23T10:06:01Z</time>
      </trkpt>
      <trkpt lat="46.37199" lon="2.36309">
        <ele>441</ele>
        <time>2018-08-23T10:06:11Z</time>
      </trkpt>
      <trkpt lat="46.3719" lon="2.36316">
        <ele>441</ele>
        <time>2018-08-23T10:06:19Z</time>
      </trkpt>
      <trkpt lat="46.37182" lon="2.36321">
        <ele>442</ele>
        <time>2018-08-23T10:06:28Z</time>
      </trkpt>
      <trkpt lat="46.37172" lon="2.36325">
        <ele>442</ele>
        <time>2018-08-23T10:06:37Z</time>
      </trkpt>
      <trkpt lat="46.37164" lon="2.36331">
        <ele>442</ele>
        <time>2018-08-23T10:06:49Z</time>
      </trkpt>
      <trkpt lat="46.37157" lon="2.36339">
        <ele>442</ele>
        <time>2018-08-23T10:06:57Z</time>
      </trkpt>
      <trkpt lat="46.37149" lon="2.36346">
        <ele>442</ele>
        <time>2018-08-23T10:07:05Z</time>
      </trkpt>
      <trkpt lat="46.37139" lon="2.36352">
        <ele>442</ele>
        <time>2018-08-23T10:07:14Z</time>
      </trkpt>
      <trkpt lat="46.3713" lon="2.36358">
        <ele>443</ele>
        <time>2018-08-23T10:07:20Z</time>
      </trkpt>
      <trkpt lat="46.37121" lon="2.36365">
        <ele>443</ele>
        <time>2018-08-23T10:07:28Z</time>
      </trkpt>
      <trkpt lat="46.37113" lon="2.36371">
        <ele>443</ele>
        <time>2018-08-23T10:07:36Z</time>
      </trkpt>
      <trkpt lat="46.37106" lon="2.3638">
        <ele>443</ele>
        <time>2018-08-23T10:07:44Z</time>
      </trkpt>
      <trkpt lat="46.37097" lon="2.36386">
        <ele>443</ele>
        <time>2018-08-23T10:07:53Z</time>
      </trkpt>
      <trkpt lat="46.37088" lon="2.36393">
        <ele>442</ele>
        <time>2018-08-23T10:08:01Z</time>
      </trkpt>
      <trkpt lat="46.37078" lon="2.36398">
        <ele>442</ele>
        <time>2018-08-23T10:08:08Z</time>
      </trkpt>
      <trkpt lat="46.37072" lon="2.36408">
        <ele>442</ele>
        <time>2018-08-23T10:08:18Z</time>
      </trkpt>
      <trkpt lat="46.37066" lon="2.3642">
        <ele>442</ele>
        <time>2018-08-23T10:08:28Z</time>
      </trkpt>
      <trkpt lat="46.37059" lon="2.36428">
        <ele>442</ele>
        <time>2018-08-23T10:08:35Z</time>
      </trkpt>
      <trkpt lat="46.37051" lon="2.36438">
        <ele>442</ele>
        <time>2018-08-23T10:08:42Z</time>
      </trkpt>
      <trkpt lat="46.37044" lon="2.36447">
        <ele>442</ele>
        <time>2018-08-23T10:08:51Z</time>
      </trkpt>
      <trkpt lat="46.37038" lon="2.36455">
        <ele>442</ele>
        <time>2018-08-23T10:08:59Z</time>
      </trkpt>
      <trkpt lat="46.37031" lon="2.36467">
        <ele>443</ele>
        <time>2018-08-23T10:09:09Z</time>
      </trkpt>
      <trkpt lat="46.37029" lon="2.3648">
        <ele>443</ele>
        <time>2018-08-23T10:09:25Z</time>
      </trkpt>
      <trkpt lat="46.3702" lon="2.36484">
        <ele>443</ele>
        <time>2018-08-23T10:09:36Z</time>
      </trkpt>
      <trkpt lat="46.37011" lon="2.36491">
        <ele>443</ele>
        <time>2018-08-23T10:09:45Z</time>
      </trkpt>
      <trkpt lat="46.37003" lon="2.36499">
        <ele>444</ele>
        <time>2018-08-23T10:09:53Z</time>
      </trkpt>
      <trkpt lat="46.36995" lon="2.36506">
        <ele>444</ele>
        <time>2018-08-23T10:10:01Z</time>
      </trkpt>
      <trkpt lat="46.36987" lon="2.36514">
        <ele>444</ele>
        <time>2018-08-23T10:10:14Z</time>
      </trkpt>
      <trkpt lat="46.36978" lon="2.36519">
        <ele>444</ele>
        <time>2018-08-23T10:10:24Z</time>
      </trkpt>
      <trkpt lat="46.3697" lon="2.36525">
        <ele>444</ele>
        <time>2018-08-23T10:10:34Z</time>
      </trkpt>
      <trkpt lat="46.3696" lon="2.36535">
        <ele>444</ele>
        <time>2018-08-23T10:10:39Z</time>
      </trkpt>
      <trkpt lat="46.36953" lon="2.36544">
        <ele>444</ele>
        <time>2018-08-23T10:10:47Z</time>
      </trkpt>
      <trkpt lat="46.36949" lon="2.36556">
        <ele>444</ele>
        <time>2018-08-23T10:10:57Z</time>
      </trkpt>
      <trkpt lat="46.36945" lon="2.36568">
        <ele>444</ele>
        <time>2018-08-23T10:11:05Z</time>
      </trkpt>
      <trkpt lat="46.36941" lon="2.3658">
        <ele>444</ele>
        <time>2018-08-23T10:11:15Z</time>
      </trkpt>
      <trkpt lat="46.36936" lon="2.36591">
        <ele>445</ele>
        <time>2018-08-23T10:11:22Z</time>
      </trkpt>
      <trkpt lat="46.36928" lon="2.36598">
        <ele>445</ele>
        <time>2018-08-23T10:11:29Z</time>
      </trkpt>
      <trkpt lat="46.36924" lon="2.3661">
        <ele>445</ele>
        <time>2018-08-23T10:11:39Z</time>
      </trkpt>
      <trkpt lat="46.36918" lon="2.36622">
        <ele>446</ele>
        <time>2018-08-23T10:11:49Z</time>
      </trkpt>
      <trkpt lat="46.36911" lon="2.36631">
        <ele>446</ele>
        <time>2018-08-23T10:12:00Z</time>
      </trkpt>
      <trkpt lat="46.36909" lon="2.36645">
        <ele>447</ele>
        <time>2018-08-23T10:12:09Z</time>
      </trkpt>
      <trkpt lat="46.36907" lon="2.36659">
        <ele>447</ele>
        <time>2018-08-23T10:12:19Z</time>
      </trkpt>
      <trkpt lat="46.36903" lon="2.36671">
        <ele>448</ele>
        <time>2018-08-23T10:12:28Z</time>
      </trkpt>
      <trkpt lat="46.36898" lon="2.36682">
        <ele>448</ele>
        <time>2018-08-23T10:12:36Z</time>
      </trkpt>
      <trkpt lat="46.36895" lon="2.36694">
        <ele>448</ele>
        <time>2018-08-23T10:12:45Z</time>
      </trkpt>
      <trkpt lat="46.36891" lon="2.36708">
        <ele>448</ele>
        <time>2018-08-23T10:12:55Z</time>
      </trkpt>
      <trkpt lat="46.36891" lon="2.36721">
        <ele>448</ele>
        <time>2018-08-23T10:13:03Z</time>
      </trkpt>
      <trkpt lat="46.36891" lon="2.36735">
        <ele>448</ele>
        <time>2018-08-23T10:13:14Z</time>
      </trkpt>
      <trkpt lat="46.36892" lon="2.3675">
        <ele>448</ele>
        <time>2018-08-23T10:13:23Z</time>
      </trkpt>
      <trkpt lat="46.36892" lon="2.36764">
        <ele>448</ele>
        <time>2018-08-23T10:13:31Z</time>
      </trkpt>
      <trkpt lat="46.36884" lon="2.36771">
        <ele>448</ele>
        <time>2018-08-23T10:13:41Z</time>
      </trkpt>
      <trkpt lat="46.36875" lon="2.36766">
        <ele>448</ele>
        <time>2018-08-23T10:13:47Z</time>
      </trkpt>
      <trkpt lat="46.36866" lon="2.36771">
        <ele>448</ele>
        <time>2018-08-23T10:13:54Z</time>
      </trkpt>
      <trkpt lat="46.3686" lon="2.36782">
        <ele>448</ele>
        <time>2018-08-23T10:14:02Z</time>
      </trkpt>
      <trkpt lat="46.36851" lon="2.36778">
        <ele>448</ele>
        <time>2018-08-23T10:14:13Z</time>
      </trkpt>
      <trkpt lat="46.36851" lon="2.36778">
        <ele>448</ele>
        <time>2018-08-23T10:14:13Z</time>
      </trkpt>
      <trkpt lat="46.36843" lon="2.36772">
        <ele>448</ele>
        <time>2018-08-23T10:14:21Z</time>
      </trkpt>
      <trkpt lat="46.36833" lon="2.36771">
        <ele>447</ele>
        <time>2018-08-23T10:14:27Z</time>
      </trkpt>
      <trkpt lat="46.36824" lon="2.36768">
        <ele>447</ele>
        <time>2018-08-23T10:14:38Z</time>
      </trkpt>
      <trkpt lat="46.36814" lon="2.36773">
        <ele>447</ele>
        <time>2018-08-23T10:15:03Z</time>
      </trkpt>
      <trkpt lat="46.36816" lon="2.36786">
        <ele>447</ele>
        <time>2018-08-23T10:15:09Z</time>
      </trkpt>
      <trkpt lat="46.36808" lon="2.36775">
        <ele>447</ele>
        <time>2018-08-23T10:15:12Z</time>
      </trkpt>
      <trkpt lat="46.36798" lon="2.36767">
        <ele>447</ele>
        <time>2018-08-23T10:15:14Z</time>
      </trkpt>
      <trkpt lat="46.36788" lon="2.3676">
        <ele>447</ele>
        <time>2018-08-23T10:15:17Z</time>
      </trkpt>
      <trkpt lat="46.36778" lon="2.36759">
        <ele>447</ele>
        <time>2018-08-23T10:15:30Z</time>
      </trkpt>
      <trkpt lat="46.36769" lon="2.36764">
        <ele>447</ele>
        <time>2018-08-23T10:15:39Z</time>
      </trkpt>
      <trkpt lat="46.3676" lon="2.36771">
        <ele>447</ele>
        <time>2018-08-23T10:15:49Z</time>
      </trkpt>
      <trkpt lat="46.36762" lon="2.36778">
        <ele>447</ele>
        <time>2018-08-23T10:18:30Z</time>
      </trkpt>
    </trkseg>
  </trk>
</gpx>